<?xml version="1.0" encoding="UTF-8" standalone="no" ?>
<gpx xmlns="http://www.topografix.com/GPX/1/1" xmlns:xsi="http://www.w3.org/2001/XMLSchema-instance" xsi:schemaLocation="http://www.topografix.com/GPX/1/1 http://www.topografix.com/GPX/1/1/gpx.xsd" version="1.1" creator="VisuGPX - https://www.visugpx.com">
  <metadata>
    <name>Gérardmer - Chaume Francis - Mauselaine</name>
    <desc><![CDATA[Carte 3618 OT Le Honeck - Gérardmer
3H]]></desc>
  </metadata>
  <trk>
    <name><![CDATA[Chaume Francis - Mauselaine]]></name>
    <desc><![CDATA[Carte 3618 OT Le Honeck - Gérardmer
3H]]></desc>
    <trkseg>
      <trkpt lat="48.05946" lon="6.89154">
        <ele>857.23</ele>
        <time>2014-02-14T10:20:36Z</time>
      </trkpt>
      <trkpt lat="48.05946" lon="6.89154">
        <ele>857.23</ele>
        <time>2014-02-14T10:20:37Z</time>
      </trkpt>
      <trkpt lat="48.05948" lon="6.89156">
        <ele>857.29</ele>
        <time>2014-02-14T10:20:57Z</time>
      </trkpt>
      <trkpt lat="48.05948" lon="6.89164">
        <ele>857.49</ele>
        <time>2014-02-14T10:21:01Z</time>
      </trkpt>
      <trkpt lat="48.05946" lon="6.892">
        <ele>857.78</ele>
        <time>2014-02-14T10:21:17Z</time>
      </trkpt>
      <trkpt lat="48.05948" lon="6.89238">
        <ele>857.55</ele>
        <time>2014-02-14T10:21:36Z</time>
      </trkpt>
      <trkpt lat="48.05945" lon="6.89249">
        <ele>857.57</ele>
        <time>2014-02-14T10:21:47Z</time>
      </trkpt>
      <trkpt lat="48.05945" lon="6.89281">
        <ele>857.57</ele>
        <time>2014-02-14T10:22:05Z</time>
      </trkpt>
      <trkpt lat="48.05936" lon="6.89307">
        <ele>857.19</ele>
        <time>2014-02-14T10:22:22Z</time>
      </trkpt>
      <trkpt lat="48.05933" lon="6.89314">
        <ele>856.97</ele>
        <time>2014-02-14T10:22:28Z</time>
      </trkpt>
      <trkpt lat="48.05922" lon="6.89345">
        <ele>857.4</ele>
        <time>2014-02-14T10:22:49Z</time>
      </trkpt>
      <trkpt lat="48.05912" lon="6.89371">
        <ele>857.7</ele>
        <time>2014-02-14T10:23:06Z</time>
      </trkpt>
      <trkpt lat="48.05901" lon="6.89392">
        <ele>857.27</ele>
        <time>2014-02-14T10:23:25Z</time>
      </trkpt>
      <trkpt lat="48.05898" lon="6.89411">
        <ele>855.96</ele>
        <time>2014-02-14T10:23:40Z</time>
      </trkpt>
      <trkpt lat="48.05899" lon="6.89432">
        <ele>853.91</ele>
        <time>2014-02-14T10:23:55Z</time>
      </trkpt>
      <trkpt lat="48.05895" lon="6.89454">
        <ele>852.06</ele>
        <time>2014-02-14T10:24:10Z</time>
      </trkpt>
      <trkpt lat="48.05894" lon="6.89459">
        <ele>851.78</ele>
        <time>2014-02-14T10:24:13Z</time>
      </trkpt>
      <trkpt lat="48.05881" lon="6.8949">
        <ele>849.41</ele>
        <time>2014-02-14T10:24:34Z</time>
      </trkpt>
      <trkpt lat="48.05871" lon="6.89515">
        <ele>849.38</ele>
        <time>2014-02-14T10:24:52Z</time>
      </trkpt>
      <trkpt lat="48.05864" lon="6.89534">
        <ele>849.29</ele>
        <time>2014-02-14T10:25:07Z</time>
      </trkpt>
      <trkpt lat="48.0586" lon="6.89551">
        <ele>849.47</ele>
        <time>2014-02-14T10:25:25Z</time>
      </trkpt>
      <trkpt lat="48.05859" lon="6.8955">
        <ele>849.83</ele>
        <time>2014-02-14T10:25:50Z</time>
      </trkpt>
      <trkpt lat="48.05858" lon="6.8955">
        <ele>849.37</ele>
        <time>2014-02-14T10:26:17Z</time>
      </trkpt>
      <trkpt lat="48.05859" lon="6.89554">
        <ele>849.49</ele>
        <time>2014-02-14T10:26:42Z</time>
      </trkpt>
      <trkpt lat="48.05857" lon="6.89554">
        <ele>851.27</ele>
        <time>2014-02-14T10:26:47Z</time>
      </trkpt>
      <trkpt lat="48.05856" lon="6.89553">
        <ele>851.39</ele>
        <time>2014-02-14T10:26:48Z</time>
      </trkpt>
      <trkpt lat="48.05856" lon="6.89551">
        <ele>850.2</ele>
        <time>2014-02-14T10:27:15Z</time>
      </trkpt>
      <trkpt lat="48.05857" lon="6.89551">
        <ele>849.74</ele>
        <time>2014-02-14T10:27:30Z</time>
      </trkpt>
      <trkpt lat="48.05841" lon="6.89579">
        <ele>850.72</ele>
        <time>2014-02-14T10:27:49Z</time>
      </trkpt>
      <trkpt lat="48.05833" lon="6.89598">
        <ele>852.14</ele>
        <time>2014-02-14T10:28:03Z</time>
      </trkpt>
      <trkpt lat="48.05835" lon="6.89611">
        <ele>852.95</ele>
        <time>2014-02-14T10:28:11Z</time>
      </trkpt>
      <trkpt lat="48.05841" lon="6.89629">
        <ele>853.57</ele>
        <time>2014-02-14T10:28:27Z</time>
      </trkpt>
      <trkpt lat="48.05834" lon="6.89642">
        <ele>856.71</ele>
        <time>2014-02-14T10:28:41Z</time>
      </trkpt>
      <trkpt lat="48.0583" lon="6.89648">
        <ele>857.75</ele>
        <time>2014-02-14T10:28:48Z</time>
      </trkpt>
      <trkpt lat="48.05821" lon="6.89661">
        <ele>860.37</ele>
        <time>2014-02-14T10:29:01Z</time>
      </trkpt>
      <trkpt lat="48.05819" lon="6.89677">
        <ele>863.5</ele>
        <time>2014-02-14T10:29:13Z</time>
      </trkpt>
      <trkpt lat="48.05821" lon="6.89687">
        <ele>866.59</ele>
        <time>2014-02-14T10:29:31Z</time>
      </trkpt>
      <trkpt lat="48.05824" lon="6.89695">
        <ele>868.63</ele>
        <time>2014-02-14T10:29:51Z</time>
      </trkpt>
      <trkpt lat="48.05832" lon="6.89707">
        <ele>871.71</ele>
        <time>2014-02-14T10:30:11Z</time>
      </trkpt>
      <trkpt lat="48.05831" lon="6.89719">
        <ele>873.07</ele>
        <time>2014-02-14T10:30:32Z</time>
      </trkpt>
      <trkpt lat="48.05835" lon="6.89727">
        <ele>875.62</ele>
        <time>2014-02-14T10:30:49Z</time>
      </trkpt>
      <trkpt lat="48.05851" lon="6.89729">
        <ele>876.49</ele>
        <time>2014-02-14T10:31:05Z</time>
      </trkpt>
      <trkpt lat="48.05859" lon="6.89745">
        <ele>875.1</ele>
        <time>2014-02-14T10:31:22Z</time>
      </trkpt>
      <trkpt lat="48.05856" lon="6.89761">
        <ele>874.98</ele>
        <time>2014-02-14T10:31:31Z</time>
      </trkpt>
      <trkpt lat="48.05852" lon="6.89775">
        <ele>877.66</ele>
        <time>2014-02-14T10:31:48Z</time>
      </trkpt>
      <trkpt lat="48.05852" lon="6.89787">
        <ele>879.78</ele>
        <time>2014-02-14T10:32:07Z</time>
      </trkpt>
      <trkpt lat="48.05856" lon="6.89798">
        <ele>879.84</ele>
        <time>2014-02-14T10:32:24Z</time>
      </trkpt>
      <trkpt lat="48.05857" lon="6.89803">
        <ele>879.78</ele>
        <time>2014-02-14T10:32:27Z</time>
      </trkpt>
      <trkpt lat="48.05861" lon="6.89813">
        <ele>880.12</ele>
        <time>2014-02-14T10:32:41Z</time>
      </trkpt>
      <trkpt lat="48.05857" lon="6.89808">
        <ele>880.32</ele>
        <time>2014-02-14T10:33:04Z</time>
      </trkpt>
      <trkpt lat="48.05857" lon="6.89808">
        <ele>880.32</ele>
        <time>2014-02-14T10:33:05Z</time>
      </trkpt>
      <trkpt lat="48.05856" lon="6.89805">
        <ele>880.3</ele>
        <time>2014-02-14T10:33:07Z</time>
      </trkpt>
      <trkpt lat="48.05854" lon="6.89797">
        <ele>880.18</ele>
        <time>2014-02-14T10:33:13Z</time>
      </trkpt>
      <trkpt lat="48.05867" lon="6.89812">
        <ele>879.08</ele>
        <time>2014-02-14T10:33:29Z</time>
      </trkpt>
      <trkpt lat="48.0587" lon="6.89811">
        <ele>879.26</ele>
        <time>2014-02-14T10:33:51Z</time>
      </trkpt>
      <trkpt lat="48.05872" lon="6.89814">
        <ele>879.31</ele>
        <time>2014-02-14T10:33:53Z</time>
      </trkpt>
      <trkpt lat="48.05882" lon="6.89833">
        <ele>877.39</ele>
        <time>2014-02-14T10:34:10Z</time>
      </trkpt>
      <trkpt lat="48.05891" lon="6.89843">
        <ele>873.95</ele>
        <time>2014-02-14T10:34:22Z</time>
      </trkpt>
      <trkpt lat="48.05895" lon="6.8985">
        <ele>870.74</ele>
        <time>2014-02-14T10:34:34Z</time>
      </trkpt>
      <trkpt lat="48.05903" lon="6.89858">
        <ele>867.69</ele>
        <time>2014-02-14T10:34:50Z</time>
      </trkpt>
      <trkpt lat="48.05915" lon="6.89868">
        <ele>865.1</ele>
        <time>2014-02-14T10:35:08Z</time>
      </trkpt>
      <trkpt lat="48.0592" lon="6.89891">
        <ele>864.27</ele>
        <time>2014-02-14T10:35:25Z</time>
      </trkpt>
      <trkpt lat="48.05925" lon="6.89904">
        <ele>861.24</ele>
        <time>2014-02-14T10:35:39Z</time>
      </trkpt>
      <trkpt lat="48.0593" lon="6.89913">
        <ele>858.1</ele>
        <time>2014-02-14T10:35:53Z</time>
      </trkpt>
      <trkpt lat="48.05934" lon="6.89926">
        <ele>856.72</ele>
        <time>2014-02-14T10:36:17Z</time>
      </trkpt>
      <trkpt lat="48.05931" lon="6.89918">
        <ele>857.03</ele>
        <time>2014-02-14T10:36:40Z</time>
      </trkpt>
      <trkpt lat="48.0592" lon="6.89905">
        <ele>858.88</ele>
        <time>2014-02-14T10:37:03Z</time>
      </trkpt>
      <trkpt lat="48.05915" lon="6.89898">
        <ele>861.54</ele>
        <time>2014-02-14T10:37:25Z</time>
      </trkpt>
      <trkpt lat="48.0591" lon="6.89884">
        <ele>864.34</ele>
        <time>2014-02-14T10:37:45Z</time>
      </trkpt>
      <trkpt lat="48.05905" lon="6.89878">
        <ele>865.75</ele>
        <time>2014-02-14T10:38:08Z</time>
      </trkpt>
      <trkpt lat="48.05891" lon="6.89867">
        <ele>867.27</ele>
        <time>2014-02-14T10:38:28Z</time>
      </trkpt>
      <trkpt lat="48.05894" lon="6.89864">
        <ele>866.03</ele>
        <time>2014-02-14T10:38:54Z</time>
      </trkpt>
      <trkpt lat="48.05896" lon="6.8987">
        <ele>867.92</ele>
        <time>2014-02-14T10:39:20Z</time>
      </trkpt>
      <trkpt lat="48.05894" lon="6.89874">
        <ele>870.32</ele>
        <time>2014-02-14T10:39:40Z</time>
      </trkpt>
      <trkpt lat="48.0589" lon="6.8988">
        <ele>872.69</ele>
        <time>2014-02-14T10:40:00Z</time>
      </trkpt>
      <trkpt lat="48.05888" lon="6.8989">
        <ele>875.3</ele>
        <time>2014-02-14T10:40:23Z</time>
      </trkpt>
      <trkpt lat="48.05887" lon="6.89911">
        <ele>878.47</ele>
        <time>2014-02-14T10:40:41Z</time>
      </trkpt>
      <trkpt lat="48.05888" lon="6.89916">
        <ele>879.53</ele>
        <time>2014-02-14T10:40:47Z</time>
      </trkpt>
      <trkpt lat="48.05885" lon="6.89927">
        <ele>880.81</ele>
        <time>2014-02-14T10:41:11Z</time>
      </trkpt>
      <trkpt lat="48.05879" lon="6.89915">
        <ele>881.25</ele>
        <time>2014-02-14T10:41:30Z</time>
      </trkpt>
      <trkpt lat="48.05879" lon="6.8992">
        <ele>884.35</ele>
        <time>2014-02-14T10:41:45Z</time>
      </trkpt>
      <trkpt lat="48.05877" lon="6.89933">
        <ele>886.72</ele>
        <time>2014-02-14T10:42:04Z</time>
      </trkpt>
      <trkpt lat="48.05873" lon="6.89944">
        <ele>889.92</ele>
        <time>2014-02-14T10:42:23Z</time>
      </trkpt>
      <trkpt lat="48.05872" lon="6.89948">
        <ele>891.71</ele>
        <time>2014-02-14T10:42:30Z</time>
      </trkpt>
      <trkpt lat="48.05867" lon="6.89954">
        <ele>894.51</ele>
        <time>2014-02-14T10:42:48Z</time>
      </trkpt>
      <trkpt lat="48.05862" lon="6.89962">
        <ele>896.69</ele>
        <time>2014-02-14T10:43:07Z</time>
      </trkpt>
      <trkpt lat="48.0586" lon="6.89978">
        <ele>899.55</ele>
        <time>2014-02-14T10:43:30Z</time>
      </trkpt>
      <trkpt lat="48.05861" lon="6.89983">
        <ele>899.32</ele>
        <time>2014-02-14T10:43:36Z</time>
      </trkpt>
      <trkpt lat="48.05864" lon="6.90009">
        <ele>900.02</ele>
        <time>2014-02-14T10:44:01Z</time>
      </trkpt>
      <trkpt lat="48.05874" lon="6.90021">
        <ele>900.88</ele>
        <time>2014-02-14T10:44:19Z</time>
      </trkpt>
      <trkpt lat="48.05878" lon="6.90039">
        <ele>903.67</ele>
        <time>2014-02-14T10:44:40Z</time>
      </trkpt>
      <trkpt lat="48.05884" lon="6.90047">
        <ele>905.25</ele>
        <time>2014-02-14T10:44:53Z</time>
      </trkpt>
      <trkpt lat="48.05891" lon="6.90049">
        <ele>905.78</ele>
        <time>2014-02-14T10:45:21Z</time>
      </trkpt>
      <trkpt lat="48.05894" lon="6.90052">
        <ele>905.28</ele>
        <time>2014-02-14T10:45:38Z</time>
      </trkpt>
      <trkpt lat="48.05897" lon="6.90054">
        <ele>905.17</ele>
        <time>2014-02-14T10:45:41Z</time>
      </trkpt>
      <trkpt lat="48.05904" lon="6.90056">
        <ele>905.16</ele>
        <time>2014-02-14T10:45:50Z</time>
      </trkpt>
      <trkpt lat="48.0591" lon="6.90053">
        <ele>906</ele>
        <time>2014-02-14T10:46:15Z</time>
      </trkpt>
      <trkpt lat="48.05902" lon="6.90051">
        <ele>905.95</ele>
        <time>2014-02-14T10:46:40Z</time>
      </trkpt>
      <trkpt lat="48.05895" lon="6.90049">
        <ele>906</ele>
        <time>2014-02-14T10:46:48Z</time>
      </trkpt>
      <trkpt lat="48.05897" lon="6.90051">
        <ele>906.34</ele>
        <time>2014-02-14T10:47:18Z</time>
      </trkpt>
      <trkpt lat="48.05893" lon="6.90048">
        <ele>906.43</ele>
        <time>2014-02-14T10:47:43Z</time>
      </trkpt>
      <trkpt lat="48.05893" lon="6.90046">
        <ele>906.45</ele>
        <time>2014-02-14T10:48:10Z</time>
      </trkpt>
      <trkpt lat="48.05893" lon="6.90046">
        <ele>906.43</ele>
        <time>2014-02-14T10:48:12Z</time>
      </trkpt>
      <trkpt lat="48.0589" lon="6.90049">
        <ele>906.65</ele>
        <time>2014-02-14T10:48:40Z</time>
      </trkpt>
      <trkpt lat="48.05891" lon="6.9005">
        <ele>906.88</ele>
        <time>2014-02-14T10:48:42Z</time>
      </trkpt>
      <trkpt lat="48.05899" lon="6.90057">
        <ele>906.69</ele>
        <time>2014-02-14T10:49:04Z</time>
      </trkpt>
      <trkpt lat="48.05907" lon="6.90061">
        <ele>907.09</ele>
        <time>2014-02-14T10:49:11Z</time>
      </trkpt>
      <trkpt lat="48.05916" lon="6.90076">
        <ele>907.26</ele>
        <time>2014-02-14T10:49:28Z</time>
      </trkpt>
      <trkpt lat="48.05917" lon="6.90075">
        <ele>905.48</ele>
        <time>2014-02-14T10:49:45Z</time>
      </trkpt>
      <trkpt lat="48.0592" lon="6.90082">
        <ele>908.91</ele>
        <time>2014-02-14T10:49:52Z</time>
      </trkpt>
      <trkpt lat="48.05909" lon="6.90084">
        <ele>909.19</ele>
        <time>2014-02-14T10:50:03Z</time>
      </trkpt>
      <trkpt lat="48.05897" lon="6.90099">
        <ele>911.03</ele>
        <time>2014-02-14T10:50:21Z</time>
      </trkpt>
      <trkpt lat="48.05891" lon="6.90107">
        <ele>913.42</ele>
        <time>2014-02-14T10:50:40Z</time>
      </trkpt>
      <trkpt lat="48.05882" lon="6.90113">
        <ele>913.19</ele>
        <time>2014-02-14T10:51:02Z</time>
      </trkpt>
      <trkpt lat="48.05882" lon="6.90119">
        <ele>912.82</ele>
        <time>2014-02-14T10:51:25Z</time>
      </trkpt>
      <trkpt lat="48.05877" lon="6.90137">
        <ele>914.68</ele>
        <time>2014-02-14T10:51:45Z</time>
      </trkpt>
      <trkpt lat="48.05875" lon="6.90152">
        <ele>916.87</ele>
        <time>2014-02-14T10:51:59Z</time>
      </trkpt>
      <trkpt lat="48.0587" lon="6.90164">
        <ele>919.46</ele>
        <time>2014-02-14T10:52:19Z</time>
      </trkpt>
      <trkpt lat="48.05865" lon="6.90174">
        <ele>919.79</ele>
        <time>2014-02-14T10:52:38Z</time>
      </trkpt>
      <trkpt lat="48.05864" lon="6.90175">
        <ele>919.81</ele>
        <time>2014-02-14T10:52:39Z</time>
      </trkpt>
      <trkpt lat="48.05862" lon="6.90192">
        <ele>918.57</ele>
        <time>2014-02-14T10:53:04Z</time>
      </trkpt>
      <trkpt lat="48.05861" lon="6.90192">
        <ele>918.14</ele>
        <time>2014-02-14T10:53:07Z</time>
      </trkpt>
      <trkpt lat="48.05854" lon="6.9021">
        <ele>920.49</ele>
        <time>2014-02-14T10:53:27Z</time>
      </trkpt>
      <trkpt lat="48.05846" lon="6.90223">
        <ele>922.31</ele>
        <time>2014-02-14T10:53:41Z</time>
      </trkpt>
      <trkpt lat="48.05838" lon="6.90231">
        <ele>922.56</ele>
        <time>2014-02-14T10:54:01Z</time>
      </trkpt>
      <trkpt lat="48.05835" lon="6.90238">
        <ele>922.93</ele>
        <time>2014-02-14T10:54:11Z</time>
      </trkpt>
      <trkpt lat="48.05826" lon="6.90255">
        <ele>926.1</ele>
        <time>2014-02-14T10:54:28Z</time>
      </trkpt>
      <trkpt lat="48.05812" lon="6.90278">
        <ele>926.59</ele>
        <time>2014-02-14T10:54:47Z</time>
      </trkpt>
      <trkpt lat="48.05817" lon="6.90297">
        <ele>927.46</ele>
        <time>2014-02-14T10:55:08Z</time>
      </trkpt>
      <trkpt lat="48.05814" lon="6.90312">
        <ele>928.88</ele>
        <time>2014-02-14T10:55:19Z</time>
      </trkpt>
      <trkpt lat="48.05812" lon="6.90328">
        <ele>929.71</ele>
        <time>2014-02-14T10:55:31Z</time>
      </trkpt>
      <trkpt lat="48.05808" lon="6.90346">
        <ele>930</ele>
        <time>2014-02-14T10:55:49Z</time>
      </trkpt>
      <trkpt lat="48.05804" lon="6.9038">
        <ele>930.04</ele>
        <time>2014-02-14T10:56:07Z</time>
      </trkpt>
      <trkpt lat="48.05799" lon="6.90385">
        <ele>930.21</ele>
        <time>2014-02-14T10:56:23Z</time>
      </trkpt>
      <trkpt lat="48.05797" lon="6.90385">
        <ele>930.2</ele>
        <time>2014-02-14T10:56:32Z</time>
      </trkpt>
      <trkpt lat="48.05784" lon="6.90402">
        <ele>928.6</ele>
        <time>2014-02-14T10:56:49Z</time>
      </trkpt>
      <trkpt lat="48.05785" lon="6.9042">
        <ele>929.36</ele>
        <time>2014-02-14T10:57:07Z</time>
      </trkpt>
      <trkpt lat="48.05786" lon="6.90432">
        <ele>930.16</ele>
        <time>2014-02-14T10:57:15Z</time>
      </trkpt>
      <trkpt lat="48.05779" lon="6.90454">
        <ele>932.43</ele>
        <time>2014-02-14T10:57:36Z</time>
      </trkpt>
      <trkpt lat="48.05775" lon="6.90483">
        <ele>933.18</ele>
        <time>2014-02-14T10:57:56Z</time>
      </trkpt>
      <trkpt lat="48.05767" lon="6.90493">
        <ele>932.67</ele>
        <time>2014-02-14T10:58:15Z</time>
      </trkpt>
      <trkpt lat="48.0577" lon="6.90514">
        <ele>933.7</ele>
        <time>2014-02-14T10:58:33Z</time>
      </trkpt>
      <trkpt lat="48.05776" lon="6.90534">
        <ele>934.29</ele>
        <time>2014-02-14T10:58:50Z</time>
      </trkpt>
      <trkpt lat="48.05781" lon="6.90562">
        <ele>933.97</ele>
        <time>2014-02-14T10:59:11Z</time>
      </trkpt>
      <trkpt lat="48.05783" lon="6.90594">
        <ele>932.2</ele>
        <time>2014-02-14T10:59:29Z</time>
      </trkpt>
      <trkpt lat="48.05782" lon="6.90617">
        <ele>931.56</ele>
        <time>2014-02-14T10:59:45Z</time>
      </trkpt>
      <trkpt lat="48.05785" lon="6.90625">
        <ele>931.12</ele>
        <time>2014-02-14T10:59:51Z</time>
      </trkpt>
      <trkpt lat="48.05786" lon="6.90628">
        <ele>931</ele>
        <time>2014-02-14T10:59:53Z</time>
      </trkpt>
      <trkpt lat="48.05786" lon="6.90661">
        <ele>930.4</ele>
        <time>2014-02-14T11:00:12Z</time>
      </trkpt>
      <trkpt lat="48.05786" lon="6.90691">
        <ele>931.34</ele>
        <time>2014-02-14T11:00:30Z</time>
      </trkpt>
      <trkpt lat="48.05786" lon="6.90713">
        <ele>933.89</ele>
        <time>2014-02-14T11:00:46Z</time>
      </trkpt>
      <trkpt lat="48.05784" lon="6.9074">
        <ele>935.15</ele>
        <time>2014-02-14T11:01:05Z</time>
      </trkpt>
      <trkpt lat="48.05788" lon="6.90747">
        <ele>935.84</ele>
        <time>2014-02-14T11:01:27Z</time>
      </trkpt>
      <trkpt lat="48.05785" lon="6.9077">
        <ele>936.75</ele>
        <time>2014-02-14T11:01:47Z</time>
      </trkpt>
      <trkpt lat="48.05777" lon="6.90798">
        <ele>937.86</ele>
        <time>2014-02-14T11:02:07Z</time>
      </trkpt>
      <trkpt lat="48.05775" lon="6.90799">
        <ele>937.93</ele>
        <time>2014-02-14T11:02:09Z</time>
      </trkpt>
      <trkpt lat="48.0576" lon="6.9082">
        <ele>936.85</ele>
        <time>2014-02-14T11:02:28Z</time>
      </trkpt>
      <trkpt lat="48.05745" lon="6.90831">
        <ele>936.73</ele>
        <time>2014-02-14T11:02:42Z</time>
      </trkpt>
      <trkpt lat="48.05735" lon="6.90841">
        <ele>937.19</ele>
        <time>2014-02-14T11:03:01Z</time>
      </trkpt>
      <trkpt lat="48.05718" lon="6.90861">
        <ele>938.57</ele>
        <time>2014-02-14T11:03:19Z</time>
      </trkpt>
      <trkpt lat="48.05702" lon="6.9087">
        <ele>939.84</ele>
        <time>2014-02-14T11:03:37Z</time>
      </trkpt>
      <trkpt lat="48.05683" lon="6.90883">
        <ele>940.16</ele>
        <time>2014-02-14T11:03:56Z</time>
      </trkpt>
      <trkpt lat="48.05681" lon="6.90884">
        <ele>939.91</ele>
        <time>2014-02-14T11:03:58Z</time>
      </trkpt>
      <trkpt lat="48.05664" lon="6.90904">
        <ele>937.43</ele>
        <time>2014-02-14T11:04:16Z</time>
      </trkpt>
      <trkpt lat="48.05652" lon="6.90917">
        <ele>936.91</ele>
        <time>2014-02-14T11:04:32Z</time>
      </trkpt>
      <trkpt lat="48.05637" lon="6.9094">
        <ele>938.42</ele>
        <time>2014-02-14T11:04:55Z</time>
      </trkpt>
      <trkpt lat="48.05625" lon="6.90955">
        <ele>939.11</ele>
        <time>2014-02-14T11:05:12Z</time>
      </trkpt>
      <trkpt lat="48.05615" lon="6.90977">
        <ele>940.72</ele>
        <time>2014-02-14T11:05:27Z</time>
      </trkpt>
      <trkpt lat="48.05608" lon="6.90987">
        <ele>940.78</ele>
        <time>2014-02-14T11:05:55Z</time>
      </trkpt>
      <trkpt lat="48.05618" lon="6.90981">
        <ele>941.05</ele>
        <time>2014-02-14T11:06:19Z</time>
      </trkpt>
      <trkpt lat="48.05608" lon="6.90988">
        <ele>941.25</ele>
        <time>2014-02-14T11:06:37Z</time>
      </trkpt>
      <trkpt lat="48.056" lon="6.90998">
        <ele>941.97</ele>
        <time>2014-02-14T11:07:08Z</time>
      </trkpt>
      <trkpt lat="48.05596" lon="6.90999">
        <ele>942.53</ele>
        <time>2014-02-14T11:07:35Z</time>
      </trkpt>
      <trkpt lat="48.05597" lon="6.91009">
        <ele>943</ele>
        <time>2014-02-14T11:07:55Z</time>
      </trkpt>
      <trkpt lat="48.05598" lon="6.9101">
        <ele>943</ele>
        <time>2014-02-14T11:07:57Z</time>
      </trkpt>
      <trkpt lat="48.05597" lon="6.91024">
        <ele>942.66</ele>
        <time>2014-02-14T11:08:21Z</time>
      </trkpt>
      <trkpt lat="48.05594" lon="6.91051">
        <ele>942.24</ele>
        <time>2014-02-14T11:08:41Z</time>
      </trkpt>
      <trkpt lat="48.05596" lon="6.91055">
        <ele>943.08</ele>
        <time>2014-02-14T11:08:47Z</time>
      </trkpt>
      <trkpt lat="48.05596" lon="6.9108">
        <ele>944.34</ele>
        <time>2014-02-14T11:09:05Z</time>
      </trkpt>
      <trkpt lat="48.05598" lon="6.91101">
        <ele>946</ele>
        <time>2014-02-14T11:09:22Z</time>
      </trkpt>
      <trkpt lat="48.05592" lon="6.91122">
        <ele>944.77</ele>
        <time>2014-02-14T11:09:40Z</time>
      </trkpt>
      <trkpt lat="48.05589" lon="6.91144">
        <ele>944.88</ele>
        <time>2014-02-14T11:09:54Z</time>
      </trkpt>
      <trkpt lat="48.05583" lon="6.91143">
        <ele>944.83</ele>
        <time>2014-02-14T11:10:15Z</time>
      </trkpt>
      <trkpt lat="48.05579" lon="6.91141">
        <ele>944.69</ele>
        <time>2014-02-14T11:10:43Z</time>
      </trkpt>
      <trkpt lat="48.05579" lon="6.91141">
        <ele>944.57</ele>
        <time>2014-02-14T11:11:17Z</time>
      </trkpt>
      <trkpt lat="48.05576" lon="6.91138">
        <ele>944.18</ele>
        <time>2014-02-14T11:11:37Z</time>
      </trkpt>
      <trkpt lat="48.0556" lon="6.91135">
        <ele>945.24</ele>
        <time>2014-02-14T11:11:52Z</time>
      </trkpt>
      <trkpt lat="48.05549" lon="6.91135">
        <ele>946.44</ele>
        <time>2014-02-14T11:12:03Z</time>
      </trkpt>
      <trkpt lat="48.05531" lon="6.91143">
        <ele>948.18</ele>
        <time>2014-02-14T11:12:21Z</time>
      </trkpt>
      <trkpt lat="48.05517" lon="6.91157">
        <ele>949.03</ele>
        <time>2014-02-14T11:12:37Z</time>
      </trkpt>
      <trkpt lat="48.05504" lon="6.91173">
        <ele>950.35</ele>
        <time>2014-02-14T11:12:52Z</time>
      </trkpt>
      <trkpt lat="48.05491" lon="6.91193">
        <ele>951.6</ele>
        <time>2014-02-14T11:13:09Z</time>
      </trkpt>
      <trkpt lat="48.05485" lon="6.91202">
        <ele>952.11</ele>
        <time>2014-02-14T11:13:16Z</time>
      </trkpt>
      <trkpt lat="48.05471" lon="6.91224">
        <ele>953.28</ele>
        <time>2014-02-14T11:13:32Z</time>
      </trkpt>
      <trkpt lat="48.05459" lon="6.91242">
        <ele>954.39</ele>
        <time>2014-02-14T11:13:50Z</time>
      </trkpt>
      <trkpt lat="48.05446" lon="6.91272">
        <ele>955.85</ele>
        <time>2014-02-14T11:14:11Z</time>
      </trkpt>
      <trkpt lat="48.05441" lon="6.91312">
        <ele>957.99</ele>
        <time>2014-02-14T11:14:35Z</time>
      </trkpt>
      <trkpt lat="48.05434" lon="6.91331">
        <ele>959.18</ele>
        <time>2014-02-14T11:14:51Z</time>
      </trkpt>
      <trkpt lat="48.0543" lon="6.91346">
        <ele>960.26</ele>
        <time>2014-02-14T11:15:10Z</time>
      </trkpt>
      <trkpt lat="48.05429" lon="6.91354">
        <ele>960.71</ele>
        <time>2014-02-14T11:15:35Z</time>
      </trkpt>
      <trkpt lat="48.05413" lon="6.91371">
        <ele>963.77</ele>
        <time>2014-02-14T11:15:53Z</time>
      </trkpt>
      <trkpt lat="48.05405" lon="6.91371">
        <ele>964.47</ele>
        <time>2014-02-14T11:16:08Z</time>
      </trkpt>
      <trkpt lat="48.05402" lon="6.91371">
        <ele>964.42</ele>
        <time>2014-02-14T11:16:14Z</time>
      </trkpt>
      <trkpt lat="48.054" lon="6.91372">
        <ele>964.36</ele>
        <time>2014-02-14T11:16:20Z</time>
      </trkpt>
      <trkpt lat="48.05397" lon="6.91374">
        <ele>964.8</ele>
        <time>2014-02-14T11:16:33Z</time>
      </trkpt>
      <trkpt lat="48.0539" lon="6.9137">
        <ele>965.23</ele>
        <time>2014-02-14T11:16:45Z</time>
      </trkpt>
      <trkpt lat="48.05385" lon="6.91367">
        <ele>962.08</ele>
        <time>2014-02-14T11:16:51Z</time>
      </trkpt>
      <trkpt lat="48.05376" lon="6.91363">
        <ele>965.22</ele>
        <time>2014-02-14T11:16:56Z</time>
      </trkpt>
      <trkpt lat="48.05371" lon="6.9136">
        <ele>965.91</ele>
        <time>2014-02-14T11:16:58Z</time>
      </trkpt>
      <trkpt lat="48.05372" lon="6.91359">
        <ele>965.79</ele>
        <time>2014-02-14T11:16:59Z</time>
      </trkpt>
      <trkpt lat="48.05375" lon="6.91358">
        <ele>965.41</ele>
        <time>2014-02-14T11:17:02Z</time>
      </trkpt>
      <trkpt lat="48.05395" lon="6.9137">
        <ele>964.61</ele>
        <time>2014-02-14T11:17:18Z</time>
      </trkpt>
      <trkpt lat="48.05397" lon="6.91382">
        <ele>965.24</ele>
        <time>2014-02-14T11:17:38Z</time>
      </trkpt>
      <trkpt lat="48.05402" lon="6.9141">
        <ele>968.37</ele>
        <time>2014-02-14T11:17:57Z</time>
      </trkpt>
      <trkpt lat="48.05404" lon="6.91442">
        <ele>971.51</ele>
        <time>2014-02-14T11:18:18Z</time>
      </trkpt>
      <trkpt lat="48.05405" lon="6.91465">
        <ele>974.47</ele>
        <time>2014-02-14T11:18:38Z</time>
      </trkpt>
      <trkpt lat="48.05401" lon="6.91491">
        <ele>977.56</ele>
        <time>2014-02-14T11:19:00Z</time>
      </trkpt>
      <trkpt lat="48.05401" lon="6.91505">
        <ele>980.22</ele>
        <time>2014-02-14T11:19:22Z</time>
      </trkpt>
      <trkpt lat="48.05402" lon="6.91511">
        <ele>980.67</ele>
        <time>2014-02-14T11:19:29Z</time>
      </trkpt>
      <trkpt lat="48.05408" lon="6.91529">
        <ele>982.83</ele>
        <time>2014-02-14T11:19:49Z</time>
      </trkpt>
      <trkpt lat="48.05415" lon="6.91543">
        <ele>984.5</ele>
        <time>2014-02-14T11:20:10Z</time>
      </trkpt>
      <trkpt lat="48.05419" lon="6.91555">
        <ele>986.08</ele>
        <time>2014-02-14T11:20:31Z</time>
      </trkpt>
      <trkpt lat="48.05416" lon="6.91575">
        <ele>988.14</ele>
        <time>2014-02-14T11:20:49Z</time>
      </trkpt>
      <trkpt lat="48.05413" lon="6.91589">
        <ele>989.43</ele>
        <time>2014-02-14T11:21:00Z</time>
      </trkpt>
      <trkpt lat="48.05416" lon="6.91596">
        <ele>990.45</ele>
        <time>2014-02-14T11:21:31Z</time>
      </trkpt>
      <trkpt lat="48.0541" lon="6.91621">
        <ele>992.09</ele>
        <time>2014-02-14T11:21:50Z</time>
      </trkpt>
      <trkpt lat="48.05405" lon="6.9165">
        <ele>993.32</ele>
        <time>2014-02-14T11:22:13Z</time>
      </trkpt>
      <trkpt lat="48.05407" lon="6.9168">
        <ele>995.23</ele>
        <time>2014-02-14T11:22:36Z</time>
      </trkpt>
      <trkpt lat="48.05402" lon="6.91706">
        <ele>997.04</ele>
        <time>2014-02-14T11:22:56Z</time>
      </trkpt>
      <trkpt lat="48.054" lon="6.91723">
        <ele>997.43</ele>
        <time>2014-02-14T11:23:16Z</time>
      </trkpt>
      <trkpt lat="48.05403" lon="6.91748">
        <ele>997.77</ele>
        <time>2014-02-14T11:23:37Z</time>
      </trkpt>
      <trkpt lat="48.05419" lon="6.91769">
        <ele>999.42</ele>
        <time>2014-02-14T11:23:58Z</time>
      </trkpt>
      <trkpt lat="48.05433" lon="6.9178">
        <ele>1001.02</ele>
        <time>2014-02-14T11:24:20Z</time>
      </trkpt>
      <trkpt lat="48.05439" lon="6.91786">
        <ele>1002.43</ele>
        <time>2014-02-14T11:24:38Z</time>
      </trkpt>
      <trkpt lat="48.05446" lon="6.91791">
        <ele>1005.05</ele>
        <time>2014-02-14T11:24:58Z</time>
      </trkpt>
      <trkpt lat="48.05463" lon="6.91808">
        <ele>1006.94</ele>
        <time>2014-02-14T11:25:20Z</time>
      </trkpt>
      <trkpt lat="48.05474" lon="6.91827">
        <ele>1009.45</ele>
        <time>2014-02-14T11:25:40Z</time>
      </trkpt>
      <trkpt lat="48.05476" lon="6.91838">
        <ele>1011</ele>
        <time>2014-02-14T11:25:55Z</time>
      </trkpt>
      <trkpt lat="48.05487" lon="6.91857">
        <ele>1013.57</ele>
        <time>2014-02-14T11:26:18Z</time>
      </trkpt>
      <trkpt lat="48.05499" lon="6.91849">
        <ele>1016.26</ele>
        <time>2014-02-14T11:26:37Z</time>
      </trkpt>
      <trkpt lat="48.05513" lon="6.91842">
        <ele>1018.22</ele>
        <time>2014-02-14T11:26:56Z</time>
      </trkpt>
      <trkpt lat="48.05528" lon="6.91855">
        <ele>1020.43</ele>
        <time>2014-02-14T11:27:17Z</time>
      </trkpt>
      <trkpt lat="48.05544" lon="6.91878">
        <ele>1022.73</ele>
        <time>2014-02-14T11:27:37Z</time>
      </trkpt>
      <trkpt lat="48.05554" lon="6.91905">
        <ele>1024.8</ele>
        <time>2014-02-14T11:27:57Z</time>
      </trkpt>
      <trkpt lat="48.05555" lon="6.91918">
        <ele>1026.63</ele>
        <time>2014-02-14T11:28:20Z</time>
      </trkpt>
      <trkpt lat="48.0556" lon="6.91928">
        <ele>1027.57</ele>
        <time>2014-02-14T11:28:43Z</time>
      </trkpt>
      <trkpt lat="48.05577" lon="6.91948">
        <ele>1030.76</ele>
        <time>2014-02-14T11:29:03Z</time>
      </trkpt>
      <trkpt lat="48.05582" lon="6.91955">
        <ele>1033.28</ele>
        <time>2014-02-14T11:29:26Z</time>
      </trkpt>
      <trkpt lat="48.05582" lon="6.91958">
        <ele>1033.01</ele>
        <time>2014-02-14T11:29:55Z</time>
      </trkpt>
      <trkpt lat="48.05585" lon="6.91961">
        <ele>1033.75</ele>
        <time>2014-02-14T11:30:18Z</time>
      </trkpt>
      <trkpt lat="48.05603" lon="6.91976">
        <ele>1036.8</ele>
        <time>2014-02-14T11:30:39Z</time>
      </trkpt>
      <trkpt lat="48.05613" lon="6.91989">
        <ele>1038.41</ele>
        <time>2014-02-14T11:30:52Z</time>
      </trkpt>
      <trkpt lat="48.05622" lon="6.9201">
        <ele>1040.22</ele>
        <time>2014-02-14T11:31:09Z</time>
      </trkpt>
      <trkpt lat="48.05627" lon="6.92028">
        <ele>1041.1</ele>
        <time>2014-02-14T11:31:28Z</time>
      </trkpt>
      <trkpt lat="48.0563" lon="6.92047">
        <ele>1040.9</ele>
        <time>2014-02-14T11:31:46Z</time>
      </trkpt>
      <trkpt lat="48.05632" lon="6.92058">
        <ele>1040.8</ele>
        <time>2014-02-14T11:31:54Z</time>
      </trkpt>
      <trkpt lat="48.05633" lon="6.92089">
        <ele>1040.48</ele>
        <time>2014-02-14T11:32:13Z</time>
      </trkpt>
      <trkpt lat="48.0563" lon="6.92099">
        <ele>1039.99</ele>
        <time>2014-02-14T11:32:29Z</time>
      </trkpt>
      <trkpt lat="48.05629" lon="6.92102">
        <ele>1040</ele>
        <time>2014-02-14T11:32:31Z</time>
      </trkpt>
      <trkpt lat="48.0562" lon="6.92112">
        <ele>1040.15</ele>
        <time>2014-02-14T11:32:42Z</time>
      </trkpt>
      <trkpt lat="48.05599" lon="6.92129">
        <ele>1039.84</ele>
        <time>2014-02-14T11:33:04Z</time>
      </trkpt>
      <trkpt lat="48.05591" lon="6.92141">
        <ele>1039.65</ele>
        <time>2014-02-14T11:33:11Z</time>
      </trkpt>
      <trkpt lat="48.05581" lon="6.92161">
        <ele>1039.07</ele>
        <time>2014-02-14T11:33:23Z</time>
      </trkpt>
      <trkpt lat="48.05578" lon="6.92184">
        <ele>1039.42</ele>
        <time>2014-02-14T11:33:37Z</time>
      </trkpt>
      <trkpt lat="48.05574" lon="6.92199">
        <ele>1039.48</ele>
        <time>2014-02-14T11:33:47Z</time>
      </trkpt>
      <trkpt lat="48.05571" lon="6.92219">
        <ele>1039.28</ele>
        <time>2014-02-14T11:34:02Z</time>
      </trkpt>
      <trkpt lat="48.05566" lon="6.92252">
        <ele>1040.21</ele>
        <time>2014-02-14T11:34:23Z</time>
      </trkpt>
      <trkpt lat="48.05567" lon="6.92273">
        <ele>1040.13</ele>
        <time>2014-02-14T11:34:37Z</time>
      </trkpt>
      <trkpt lat="48.05567" lon="6.92277">
        <ele>1040.03</ele>
        <time>2014-02-14T11:34:39Z</time>
      </trkpt>
      <trkpt lat="48.05559" lon="6.92305">
        <ele>1040.25</ele>
        <time>2014-02-14T11:34:53Z</time>
      </trkpt>
      <trkpt lat="48.05552" lon="6.9232">
        <ele>1040.78</ele>
        <time>2014-02-14T11:35:05Z</time>
      </trkpt>
      <trkpt lat="48.05548" lon="6.92321">
        <ele>1040.73</ele>
        <time>2014-02-14T11:35:10Z</time>
      </trkpt>
      <trkpt lat="48.05546" lon="6.92322">
        <ele>1040.7</ele>
        <time>2014-02-14T11:35:12Z</time>
      </trkpt>
      <trkpt lat="48.05542" lon="6.92329">
        <ele>1042.47</ele>
        <time>2014-02-14T11:35:46Z</time>
      </trkpt>
      <trkpt lat="48.05555" lon="6.92324">
        <ele>1042.07</ele>
        <time>2014-02-14T11:36:17Z</time>
      </trkpt>
      <trkpt lat="48.05543" lon="6.92334">
        <ele>1041.97</ele>
        <time>2014-02-14T11:36:46Z</time>
      </trkpt>
      <trkpt lat="48.05535" lon="6.92335">
        <ele>1041.71</ele>
        <time>2014-02-14T11:37:11Z</time>
      </trkpt>
      <trkpt lat="48.05517" lon="6.92335">
        <ele>1041.8</ele>
        <time>2014-02-14T11:37:25Z</time>
      </trkpt>
      <trkpt lat="48.05497" lon="6.92321">
        <ele>1042</ele>
        <time>2014-02-14T11:37:44Z</time>
      </trkpt>
      <trkpt lat="48.05473" lon="6.92318">
        <ele>1042.26</ele>
        <time>2014-02-14T11:38:04Z</time>
      </trkpt>
      <trkpt lat="48.05459" lon="6.92341">
        <ele>1042.74</ele>
        <time>2014-02-14T11:38:24Z</time>
      </trkpt>
      <trkpt lat="48.05458" lon="6.92342">
        <ele>1042.74</ele>
        <time>2014-02-14T11:38:25Z</time>
      </trkpt>
      <trkpt lat="48.05435" lon="6.92358">
        <ele>1043.26</ele>
        <time>2014-02-14T11:38:43Z</time>
      </trkpt>
      <trkpt lat="48.05414" lon="6.92364">
        <ele>1044.12</ele>
        <time>2014-02-14T11:39:02Z</time>
      </trkpt>
      <trkpt lat="48.05403" lon="6.92354">
        <ele>1044.05</ele>
        <time>2014-02-14T11:39:12Z</time>
      </trkpt>
      <trkpt lat="48.05399" lon="6.92345">
        <ele>1044.11</ele>
        <time>2014-02-14T11:39:17Z</time>
      </trkpt>
      <trkpt lat="48.05387" lon="6.92334">
        <ele>1044.52</ele>
        <time>2014-02-14T11:39:32Z</time>
      </trkpt>
      <trkpt lat="48.05376" lon="6.92306">
        <ele>1044.1</ele>
        <time>2014-02-14T11:39:52Z</time>
      </trkpt>
      <trkpt lat="48.05381" lon="6.92279">
        <ele>1043.32</ele>
        <time>2014-02-14T11:40:04Z</time>
      </trkpt>
      <trkpt lat="48.05381" lon="6.92248">
        <ele>1042.68</ele>
        <time>2014-02-14T11:40:23Z</time>
      </trkpt>
      <trkpt lat="48.05376" lon="6.92214">
        <ele>1041.97</ele>
        <time>2014-02-14T11:40:38Z</time>
      </trkpt>
      <trkpt lat="48.05353" lon="6.92195">
        <ele>1042.25</ele>
        <time>2014-02-14T11:40:58Z</time>
      </trkpt>
      <trkpt lat="48.05333" lon="6.92194">
        <ele>1042.02</ele>
        <time>2014-02-14T11:41:17Z</time>
      </trkpt>
      <trkpt lat="48.05309" lon="6.92193">
        <ele>1040.71</ele>
        <time>2014-02-14T11:41:38Z</time>
      </trkpt>
      <trkpt lat="48.05305" lon="6.92193">
        <ele>1040.6</ele>
        <time>2014-02-14T11:41:41Z</time>
      </trkpt>
      <trkpt lat="48.05287" lon="6.92193">
        <ele>1040.02</ele>
        <time>2014-02-14T11:41:56Z</time>
      </trkpt>
      <trkpt lat="48.05268" lon="6.92197">
        <ele>1039.22</ele>
        <time>2014-02-14T11:42:13Z</time>
      </trkpt>
      <trkpt lat="48.05251" lon="6.92202">
        <ele>1038.86</ele>
        <time>2014-02-14T11:42:28Z</time>
      </trkpt>
      <trkpt lat="48.05233" lon="6.92213">
        <ele>1038.21</ele>
        <time>2014-02-14T11:42:47Z</time>
      </trkpt>
      <trkpt lat="48.05222" lon="6.92222">
        <ele>1038.25</ele>
        <time>2014-02-14T11:42:58Z</time>
      </trkpt>
      <trkpt lat="48.05205" lon="6.92241">
        <ele>1037.97</ele>
        <time>2014-02-14T11:43:16Z</time>
      </trkpt>
      <trkpt lat="48.05182" lon="6.92249">
        <ele>1037.87</ele>
        <time>2014-02-14T11:43:36Z</time>
      </trkpt>
      <trkpt lat="48.05154" lon="6.92247">
        <ele>1037.75</ele>
        <time>2014-02-14T11:43:59Z</time>
      </trkpt>
      <trkpt lat="48.05129" lon="6.92248">
        <ele>1037.77</ele>
        <time>2014-02-14T11:44:23Z</time>
      </trkpt>
      <trkpt lat="48.05114" lon="6.92242">
        <ele>1037.65</ele>
        <time>2014-02-14T11:44:40Z</time>
      </trkpt>
      <trkpt lat="48.05101" lon="6.92222">
        <ele>1038.03</ele>
        <time>2014-02-14T11:44:59Z</time>
      </trkpt>
      <trkpt lat="48.05099" lon="6.92209">
        <ele>1038.2</ele>
        <time>2014-02-14T11:45:12Z</time>
      </trkpt>
      <trkpt lat="48.05105" lon="6.92169">
        <ele>1037.71</ele>
        <time>2014-02-14T11:45:32Z</time>
      </trkpt>
      <trkpt lat="48.05093" lon="6.92142">
        <ele>1037.89</ele>
        <time>2014-02-14T11:45:52Z</time>
      </trkpt>
      <trkpt lat="48.05091" lon="6.9214">
        <ele>1037.85</ele>
        <time>2014-02-14T11:45:55Z</time>
      </trkpt>
      <trkpt lat="48.05088" lon="6.92139">
        <ele>1037.81</ele>
        <time>2014-02-14T11:45:58Z</time>
      </trkpt>
      <trkpt lat="48.05065" lon="6.92141">
        <ele>1037.52</ele>
        <time>2014-02-14T11:46:19Z</time>
      </trkpt>
      <trkpt lat="48.0506" lon="6.92136">
        <ele>1037.59</ele>
        <time>2014-02-14T11:46:23Z</time>
      </trkpt>
      <trkpt lat="48.05043" lon="6.92123">
        <ele>1037.33</ele>
        <time>2014-02-14T11:46:36Z</time>
      </trkpt>
      <trkpt lat="48.05029" lon="6.92109">
        <ele>1037.15</ele>
        <time>2014-02-14T11:46:55Z</time>
      </trkpt>
      <trkpt lat="48.05019" lon="6.92088">
        <ele>1036.6</ele>
        <time>2014-02-14T11:47:15Z</time>
      </trkpt>
      <trkpt lat="48.05007" lon="6.92063">
        <ele>1036.77</ele>
        <time>2014-02-14T11:47:38Z</time>
      </trkpt>
      <trkpt lat="48.05001" lon="6.92058">
        <ele>1037.5</ele>
        <time>2014-02-14T11:47:47Z</time>
      </trkpt>
      <trkpt lat="48.05006" lon="6.92053">
        <ele>1038.62</ele>
        <time>2014-02-14T11:47:53Z</time>
      </trkpt>
      <trkpt lat="48.05008" lon="6.9205">
        <ele>1038.71</ele>
        <time>2014-02-14T11:47:55Z</time>
      </trkpt>
      <trkpt lat="48.05008" lon="6.92045">
        <ele>1038.77</ele>
        <time>2014-02-14T11:47:58Z</time>
      </trkpt>
      <trkpt lat="48.05" lon="6.92036">
        <ele>1039.73</ele>
        <time>2014-02-14T11:48:17Z</time>
      </trkpt>
      <trkpt lat="48.05003" lon="6.92034">
        <ele>1040.29</ele>
        <time>2014-02-14T11:48:38Z</time>
      </trkpt>
      <trkpt lat="48.05009" lon="6.92033">
        <ele>1040.54</ele>
        <time>2014-02-14T11:48:43Z</time>
      </trkpt>
      <trkpt lat="48.05012" lon="6.92026">
        <ele>1040.64</ele>
        <time>2014-02-14T11:49:13Z</time>
      </trkpt>
      <trkpt lat="48.05009" lon="6.92029">
        <ele>1040.46</ele>
        <time>2014-02-14T11:49:23Z</time>
      </trkpt>
      <trkpt lat="48.05" lon="6.92037">
        <ele>1040.84</ele>
        <time>2014-02-14T11:49:49Z</time>
      </trkpt>
      <trkpt lat="48.04991" lon="6.92042">
        <ele>1040.58</ele>
        <time>2014-02-14T11:50:11Z</time>
      </trkpt>
      <trkpt lat="48.04996" lon="6.92038">
        <ele>1040.52</ele>
        <time>2014-02-14T11:50:24Z</time>
      </trkpt>
      <trkpt lat="48.05001" lon="6.92045">
        <ele>1040.36</ele>
        <time>2014-02-14T11:50:50Z</time>
      </trkpt>
      <trkpt lat="48.05" lon="6.92042">
        <ele>1040.74</ele>
        <time>2014-02-14T11:51:05Z</time>
      </trkpt>
      <trkpt lat="48.04997" lon="6.9204">
        <ele>1040.38</ele>
        <time>2014-02-14T11:51:13Z</time>
      </trkpt>
      <trkpt lat="48.04993" lon="6.92041">
        <ele>1040.21</ele>
        <time>2014-02-14T11:51:18Z</time>
      </trkpt>
      <trkpt lat="48.04985" lon="6.92031">
        <ele>1040.5</ele>
        <time>2014-02-14T11:51:29Z</time>
      </trkpt>
      <trkpt lat="48.04962" lon="6.92026">
        <ele>1042.73</ele>
        <time>2014-02-14T11:51:52Z</time>
      </trkpt>
      <trkpt lat="48.04948" lon="6.92031">
        <ele>1045.82</ele>
        <time>2014-02-14T11:52:09Z</time>
      </trkpt>
      <trkpt lat="48.04938" lon="6.92036">
        <ele>1048.91</ele>
        <time>2014-02-14T11:52:22Z</time>
      </trkpt>
      <trkpt lat="48.0493" lon="6.92036">
        <ele>1051.38</ele>
        <time>2014-02-14T11:52:40Z</time>
      </trkpt>
      <trkpt lat="48.0493" lon="6.92036">
        <ele>1051.55</ele>
        <time>2014-02-14T11:52:42Z</time>
      </trkpt>
      <trkpt lat="48.04913" lon="6.92046">
        <ele>1054.51</ele>
        <time>2014-02-14T11:53:05Z</time>
      </trkpt>
      <trkpt lat="48.04905" lon="6.92049">
        <ele>1056.85</ele>
        <time>2014-02-14T11:53:20Z</time>
      </trkpt>
      <trkpt lat="48.04897" lon="6.92054">
        <ele>1059.94</ele>
        <time>2014-02-14T11:53:37Z</time>
      </trkpt>
      <trkpt lat="48.04895" lon="6.92055">
        <ele>1060.19</ele>
        <time>2014-02-14T11:53:40Z</time>
      </trkpt>
      <trkpt lat="48.04885" lon="6.92065">
        <ele>1061.69</ele>
        <time>2014-02-14T11:53:54Z</time>
      </trkpt>
      <trkpt lat="48.04871" lon="6.92069">
        <ele>1064.52</ele>
        <time>2014-02-14T11:54:16Z</time>
      </trkpt>
      <trkpt lat="48.0486" lon="6.92061">
        <ele>1066.67</ele>
        <time>2014-02-14T11:54:33Z</time>
      </trkpt>
      <trkpt lat="48.04844" lon="6.92057">
        <ele>1068.66</ele>
        <time>2014-02-14T11:54:55Z</time>
      </trkpt>
      <trkpt lat="48.04832" lon="6.9206">
        <ele>1069.06</ele>
        <time>2014-02-14T11:55:16Z</time>
      </trkpt>
      <trkpt lat="48.04822" lon="6.92054">
        <ele>1069.48</ele>
        <time>2014-02-14T11:55:40Z</time>
      </trkpt>
      <trkpt lat="48.04819" lon="6.92048">
        <ele>1070.16</ele>
        <time>2014-02-14T11:55:47Z</time>
      </trkpt>
      <trkpt lat="48.04812" lon="6.92037">
        <ele>1071.85</ele>
        <time>2014-02-14T11:55:59Z</time>
      </trkpt>
      <trkpt lat="48.04811" lon="6.92016">
        <ele>1073.68</ele>
        <time>2014-02-14T11:56:18Z</time>
      </trkpt>
      <trkpt lat="48.04807" lon="6.91995">
        <ele>1075.68</ele>
        <time>2014-02-14T11:56:38Z</time>
      </trkpt>
      <trkpt lat="48.04804" lon="6.91973">
        <ele>1077.79</ele>
        <time>2014-02-14T11:56:57Z</time>
      </trkpt>
      <trkpt lat="48.04796" lon="6.91951">
        <ele>1078.94</ele>
        <time>2014-02-14T11:57:14Z</time>
      </trkpt>
      <trkpt lat="48.04793" lon="6.91936">
        <ele>1079.71</ele>
        <time>2014-02-14T11:57:28Z</time>
      </trkpt>
      <trkpt lat="48.04788" lon="6.91918">
        <ele>1080.65</ele>
        <time>2014-02-14T11:57:42Z</time>
      </trkpt>
      <trkpt lat="48.04781" lon="6.91904">
        <ele>1082.5</ele>
        <time>2014-02-14T11:57:56Z</time>
      </trkpt>
      <trkpt lat="48.04779" lon="6.91893">
        <ele>1084.74</ele>
        <time>2014-02-14T11:58:07Z</time>
      </trkpt>
      <trkpt lat="48.04781" lon="6.9187">
        <ele>1087.94</ele>
        <time>2014-02-14T11:58:23Z</time>
      </trkpt>
      <trkpt lat="48.04787" lon="6.91853">
        <ele>1090.82</ele>
        <time>2014-02-14T11:58:39Z</time>
      </trkpt>
      <trkpt lat="48.0478" lon="6.91841">
        <ele>1092.59</ele>
        <time>2014-02-14T11:58:54Z</time>
      </trkpt>
      <trkpt lat="48.04765" lon="6.91838">
        <ele>1093.77</ele>
        <time>2014-02-14T11:59:07Z</time>
      </trkpt>
      <trkpt lat="48.04752" lon="6.91854">
        <ele>1095.96</ele>
        <time>2014-02-14T11:59:27Z</time>
      </trkpt>
      <trkpt lat="48.04739" lon="6.91871">
        <ele>1098.22</ele>
        <time>2014-02-14T11:59:49Z</time>
      </trkpt>
      <trkpt lat="48.04729" lon="6.91882">
        <ele>1101.35</ele>
        <time>2014-02-14T12:00:07Z</time>
      </trkpt>
      <trkpt lat="48.04721" lon="6.91892">
        <ele>1104.47</ele>
        <time>2014-02-14T12:00:21Z</time>
      </trkpt>
      <trkpt lat="48.04712" lon="6.91905">
        <ele>1106.61</ele>
        <time>2014-02-14T12:00:36Z</time>
      </trkpt>
      <trkpt lat="48.04708" lon="6.91907">
        <ele>1107.03</ele>
        <time>2014-02-14T12:00:39Z</time>
      </trkpt>
      <trkpt lat="48.04681" lon="6.91916">
        <ele>1109.66</ele>
        <time>2014-02-14T12:01:01Z</time>
      </trkpt>
      <trkpt lat="48.04668" lon="6.91921">
        <ele>1111.98</ele>
        <time>2014-02-14T12:01:20Z</time>
      </trkpt>
      <trkpt lat="48.04657" lon="6.91924">
        <ele>1114.38</ele>
        <time>2014-02-14T12:01:36Z</time>
      </trkpt>
      <trkpt lat="48.04645" lon="6.91917">
        <ele>1117.35</ele>
        <time>2014-02-14T12:01:56Z</time>
      </trkpt>
      <trkpt lat="48.04628" lon="6.9192">
        <ele>1119.86</ele>
        <time>2014-02-14T12:02:15Z</time>
      </trkpt>
      <trkpt lat="48.04605" lon="6.91919">
        <ele>1122.82</ele>
        <time>2014-02-14T12:02:37Z</time>
      </trkpt>
      <trkpt lat="48.04579" lon="6.91919">
        <ele>1123.9</ele>
        <time>2014-02-14T12:03:01Z</time>
      </trkpt>
      <trkpt lat="48.04558" lon="6.91926">
        <ele>1123.21</ele>
        <time>2014-02-14T12:03:24Z</time>
      </trkpt>
      <trkpt lat="48.04542" lon="6.91928">
        <ele>1124.05</ele>
        <time>2014-02-14T12:03:39Z</time>
      </trkpt>
      <trkpt lat="48.04534" lon="6.91928">
        <ele>1124.7</ele>
        <time>2014-02-14T12:03:51Z</time>
      </trkpt>
      <trkpt lat="48.04524" lon="6.91928">
        <ele>1125.16</ele>
        <time>2014-02-14T12:04:18Z</time>
      </trkpt>
      <trkpt lat="48.04512" lon="6.9193">
        <ele>1126.22</ele>
        <time>2014-02-14T12:04:36Z</time>
      </trkpt>
      <trkpt lat="48.04496" lon="6.91923">
        <ele>1129.31</ele>
        <time>2014-02-14T12:04:57Z</time>
      </trkpt>
      <trkpt lat="48.04486" lon="6.91913">
        <ele>1131.81</ele>
        <time>2014-02-14T12:05:15Z</time>
      </trkpt>
      <trkpt lat="48.0448" lon="6.91904">
        <ele>1132.13</ele>
        <time>2014-02-14T12:05:33Z</time>
      </trkpt>
      <trkpt lat="48.04487" lon="6.91889">
        <ele>1132.49</ele>
        <time>2014-02-14T12:06:05Z</time>
      </trkpt>
      <trkpt lat="48.04492" lon="6.91897">
        <ele>1132.19</ele>
        <time>2014-02-14T12:06:42Z</time>
      </trkpt>
      <trkpt lat="48.04486" lon="6.919">
        <ele>1132.73</ele>
        <time>2014-02-14T12:07:16Z</time>
      </trkpt>
      <trkpt lat="48.0449" lon="6.91905">
        <ele>1132.86</ele>
        <time>2014-02-14T12:07:42Z</time>
      </trkpt>
      <trkpt lat="48.04484" lon="6.91921">
        <ele>1132.61</ele>
        <time>2014-02-14T12:08:13Z</time>
      </trkpt>
      <trkpt lat="48.04488" lon="6.91904">
        <ele>1132.8</ele>
        <time>2014-02-14T12:08:30Z</time>
      </trkpt>
      <trkpt lat="48.04488" lon="6.91901">
        <ele>1132.7</ele>
        <time>2014-02-14T12:08:33Z</time>
      </trkpt>
      <trkpt lat="48.04466" lon="6.91898">
        <ele>1132.35</ele>
        <time>2014-02-14T12:08:50Z</time>
      </trkpt>
      <trkpt lat="48.04444" lon="6.91903">
        <ele>1131.57</ele>
        <time>2014-02-14T12:09:14Z</time>
      </trkpt>
      <trkpt lat="48.04424" lon="6.91909">
        <ele>1129.58</ele>
        <time>2014-02-14T12:09:35Z</time>
      </trkpt>
      <trkpt lat="48.04403" lon="6.91899">
        <ele>1127.48</ele>
        <time>2014-02-14T12:10:00Z</time>
      </trkpt>
      <trkpt lat="48.04386" lon="6.91895">
        <ele>1124.46</ele>
        <time>2014-02-14T12:10:19Z</time>
      </trkpt>
      <trkpt lat="48.04369" lon="6.91887">
        <ele>1121.43</ele>
        <time>2014-02-14T12:10:39Z</time>
      </trkpt>
      <trkpt lat="48.04348" lon="6.91878">
        <ele>1119.85</ele>
        <time>2014-02-14T12:10:59Z</time>
      </trkpt>
      <trkpt lat="48.04327" lon="6.91874">
        <ele>1117.04</ele>
        <time>2014-02-14T12:11:20Z</time>
      </trkpt>
      <trkpt lat="48.04313" lon="6.91872">
        <ele>1114.26</ele>
        <time>2014-02-14T12:11:38Z</time>
      </trkpt>
      <trkpt lat="48.04293" lon="6.91865">
        <ele>1111.05</ele>
        <time>2014-02-14T12:11:58Z</time>
      </trkpt>
      <trkpt lat="48.04278" lon="6.91856">
        <ele>1107.89</ele>
        <time>2014-02-14T12:12:14Z</time>
      </trkpt>
      <trkpt lat="48.04258" lon="6.91851">
        <ele>1105.46</ele>
        <time>2014-02-14T12:12:33Z</time>
      </trkpt>
      <trkpt lat="48.04242" lon="6.91848">
        <ele>1102.12</ele>
        <time>2014-02-14T12:12:49Z</time>
      </trkpt>
      <trkpt lat="48.04226" lon="6.91831">
        <ele>1099.82</ele>
        <time>2014-02-14T12:13:11Z</time>
      </trkpt>
      <trkpt lat="48.04221" lon="6.91808">
        <ele>1101.62</ele>
        <time>2014-02-14T12:13:30Z</time>
      </trkpt>
      <trkpt lat="48.04216" lon="6.91784">
        <ele>1104.24</ele>
        <time>2014-02-14T12:13:50Z</time>
      </trkpt>
      <trkpt lat="48.04221" lon="6.91757">
        <ele>1105.76</ele>
        <time>2014-02-14T12:14:09Z</time>
      </trkpt>
      <trkpt lat="48.04225" lon="6.91741">
        <ele>1105.46</ele>
        <time>2014-02-14T12:14:21Z</time>
      </trkpt>
      <trkpt lat="48.04225" lon="6.91742">
        <ele>1104.64</ele>
        <time>2014-02-14T12:14:49Z</time>
      </trkpt>
      <trkpt lat="48.04224" lon="6.91742">
        <ele>1105.25</ele>
        <time>2014-02-14T12:15:07Z</time>
      </trkpt>
      <trkpt lat="48.04224" lon="6.91733">
        <ele>1105.98</ele>
        <time>2014-02-14T12:15:42Z</time>
      </trkpt>
      <trkpt lat="48.04221" lon="6.91726">
        <ele>1105.92</ele>
        <time>2014-02-14T12:15:50Z</time>
      </trkpt>
      <trkpt lat="48.04219" lon="6.91718">
        <ele>1105.45</ele>
        <time>2014-02-14T12:16:24Z</time>
      </trkpt>
      <trkpt lat="48.04219" lon="6.91719">
        <ele>1105.83</ele>
        <time>2014-02-14T12:16:50Z</time>
      </trkpt>
      <trkpt lat="48.04223" lon="6.91724">
        <ele>1105.18</ele>
        <time>2014-02-14T12:17:04Z</time>
      </trkpt>
      <trkpt lat="48.04226" lon="6.91722">
        <ele>1105.25</ele>
        <time>2014-02-14T12:17:12Z</time>
      </trkpt>
      <trkpt lat="48.04229" lon="6.9171">
        <ele>1105.07</ele>
        <time>2014-02-14T12:17:24Z</time>
      </trkpt>
      <trkpt lat="48.04231" lon="6.91692">
        <ele>1101.84</ele>
        <time>2014-02-14T12:17:41Z</time>
      </trkpt>
      <trkpt lat="48.04225" lon="6.91655">
        <ele>1098.82</ele>
        <time>2014-02-14T12:17:59Z</time>
      </trkpt>
      <trkpt lat="48.0422" lon="6.91636">
        <ele>1097.39</ele>
        <time>2014-02-14T12:18:15Z</time>
      </trkpt>
      <trkpt lat="48.04215" lon="6.91605">
        <ele>1094.51</ele>
        <time>2014-02-14T12:18:33Z</time>
      </trkpt>
      <trkpt lat="48.04205" lon="6.91577">
        <ele>1092.34</ele>
        <time>2014-02-14T12:18:49Z</time>
      </trkpt>
      <trkpt lat="48.04197" lon="6.91534">
        <ele>1090.33</ele>
        <time>2014-02-14T12:19:10Z</time>
      </trkpt>
      <trkpt lat="48.04197" lon="6.915">
        <ele>1089.22</ele>
        <time>2014-02-14T12:19:31Z</time>
      </trkpt>
      <trkpt lat="48.04193" lon="6.91468">
        <ele>1086.86</ele>
        <time>2014-02-14T12:19:45Z</time>
      </trkpt>
      <trkpt lat="48.04192" lon="6.91428">
        <ele>1083.93</ele>
        <time>2014-02-14T12:20:05Z</time>
      </trkpt>
      <trkpt lat="48.0419" lon="6.9141">
        <ele>1082.52</ele>
        <time>2014-02-14T12:20:18Z</time>
      </trkpt>
      <trkpt lat="48.04188" lon="6.91391">
        <ele>1081.88</ele>
        <time>2014-02-14T12:20:28Z</time>
      </trkpt>
      <trkpt lat="48.04185" lon="6.91364">
        <ele>1080.29</ele>
        <time>2014-02-14T12:20:44Z</time>
      </trkpt>
      <trkpt lat="48.04184" lon="6.91357">
        <ele>1079.76</ele>
        <time>2014-02-14T12:20:48Z</time>
      </trkpt>
      <trkpt lat="48.04181" lon="6.91344">
        <ele>1078.48</ele>
        <time>2014-02-14T12:20:55Z</time>
      </trkpt>
      <trkpt lat="48.04175" lon="6.91312">
        <ele>1077.6</ele>
        <time>2014-02-14T12:21:14Z</time>
      </trkpt>
      <trkpt lat="48.04173" lon="6.91307">
        <ele>1076.94</ele>
        <time>2014-02-14T12:21:20Z</time>
      </trkpt>
      <trkpt lat="48.04176" lon="6.91288">
        <ele>1074.83</ele>
        <time>2014-02-14T12:21:37Z</time>
      </trkpt>
      <trkpt lat="48.04179" lon="6.91285">
        <ele>1074.34</ele>
        <time>2014-02-14T12:21:41Z</time>
      </trkpt>
      <trkpt lat="48.04189" lon="6.9128">
        <ele>1073.95</ele>
        <time>2014-02-14T12:21:57Z</time>
      </trkpt>
      <trkpt lat="48.04205" lon="6.91282">
        <ele>1074.25</ele>
        <time>2014-02-14T12:22:13Z</time>
      </trkpt>
      <trkpt lat="48.04212" lon="6.91282">
        <ele>1074.7</ele>
        <time>2014-02-14T12:22:32Z</time>
      </trkpt>
      <trkpt lat="48.04214" lon="6.9128">
        <ele>1074.99</ele>
        <time>2014-02-14T12:22:53Z</time>
      </trkpt>
      <trkpt lat="48.04216" lon="6.9128">
        <ele>1075.06</ele>
        <time>2014-02-14T12:22:55Z</time>
      </trkpt>
      <trkpt lat="48.04237" lon="6.91274">
        <ele>1076.17</ele>
        <time>2014-02-14T12:23:15Z</time>
      </trkpt>
      <trkpt lat="48.04239" lon="6.91273">
        <ele>1076.3</ele>
        <time>2014-02-14T12:23:17Z</time>
      </trkpt>
      <trkpt lat="48.04258" lon="6.9127">
        <ele>1076.97</ele>
        <time>2014-02-14T12:23:34Z</time>
      </trkpt>
      <trkpt lat="48.04275" lon="6.91266">
        <ele>1078.44</ele>
        <time>2014-02-14T12:23:50Z</time>
      </trkpt>
      <trkpt lat="48.04281" lon="6.91265">
        <ele>1078.8</ele>
        <time>2014-02-14T12:24:00Z</time>
      </trkpt>
      <trkpt lat="48.04301" lon="6.91262">
        <ele>1079.85</ele>
        <time>2014-02-14T12:24:21Z</time>
      </trkpt>
      <trkpt lat="48.04313" lon="6.91259">
        <ele>1081.01</ele>
        <time>2014-02-14T12:24:42Z</time>
      </trkpt>
      <trkpt lat="48.04335" lon="6.91254">
        <ele>1082.08</ele>
        <time>2014-02-14T12:25:03Z</time>
      </trkpt>
      <trkpt lat="48.04357" lon="6.91251">
        <ele>1083.75</ele>
        <time>2014-02-14T12:25:24Z</time>
      </trkpt>
      <trkpt lat="48.0438" lon="6.91253">
        <ele>1084.17</ele>
        <time>2014-02-14T12:25:42Z</time>
      </trkpt>
      <trkpt lat="48.04398" lon="6.91255">
        <ele>1084.03</ele>
        <time>2014-02-14T12:25:58Z</time>
      </trkpt>
      <trkpt lat="48.04418" lon="6.9125">
        <ele>1085.13</ele>
        <time>2014-02-14T12:26:17Z</time>
      </trkpt>
      <trkpt lat="48.04433" lon="6.91234">
        <ele>1087.07</ele>
        <time>2014-02-14T12:26:35Z</time>
      </trkpt>
      <trkpt lat="48.04452" lon="6.91209">
        <ele>1090.13</ele>
        <time>2014-02-14T12:26:57Z</time>
      </trkpt>
      <trkpt lat="48.04462" lon="6.91193">
        <ele>1091.56</ele>
        <time>2014-02-14T12:27:10Z</time>
      </trkpt>
      <trkpt lat="48.04482" lon="6.91179">
        <ele>1092.08</ele>
        <time>2014-02-14T12:27:30Z</time>
      </trkpt>
      <trkpt lat="48.04497" lon="6.91172">
        <ele>1094.07</ele>
        <time>2014-02-14T12:27:49Z</time>
      </trkpt>
      <trkpt lat="48.04504" lon="6.91168">
        <ele>1095.13</ele>
        <time>2014-02-14T12:27:58Z</time>
      </trkpt>
      <trkpt lat="48.04527" lon="6.9116">
        <ele>1097.72</ele>
        <time>2014-02-14T12:28:21Z</time>
      </trkpt>
      <trkpt lat="48.04552" lon="6.91152">
        <ele>1100.88</ele>
        <time>2014-02-14T12:28:44Z</time>
      </trkpt>
      <trkpt lat="48.04565" lon="6.91141">
        <ele>1101.54</ele>
        <time>2014-02-14T12:29:02Z</time>
      </trkpt>
      <trkpt lat="48.04571" lon="6.91137">
        <ele>1101.46</ele>
        <time>2014-02-14T12:29:24Z</time>
      </trkpt>
      <trkpt lat="48.04574" lon="6.91143">
        <ele>1100.71</ele>
        <time>2014-02-14T12:29:55Z</time>
      </trkpt>
      <trkpt lat="48.04576" lon="6.91134">
        <ele>1100.62</ele>
        <time>2014-02-14T12:30:03Z</time>
      </trkpt>
      <trkpt lat="48.04572" lon="6.91106">
        <ele>1099.2</ele>
        <time>2014-02-14T12:30:19Z</time>
      </trkpt>
      <trkpt lat="48.04573" lon="6.91097">
        <ele>1098.22</ele>
        <time>2014-02-14T12:30:26Z</time>
      </trkpt>
      <trkpt lat="48.04579" lon="6.91077">
        <ele>1096.38</ele>
        <time>2014-02-14T12:30:42Z</time>
      </trkpt>
      <trkpt lat="48.04589" lon="6.91055">
        <ele>1094.77</ele>
        <time>2014-02-14T12:30:58Z</time>
      </trkpt>
      <trkpt lat="48.04599" lon="6.91034">
        <ele>1093.33</ele>
        <time>2014-02-14T12:31:15Z</time>
      </trkpt>
      <trkpt lat="48.04606" lon="6.91018">
        <ele>1093.05</ele>
        <time>2014-02-14T12:31:26Z</time>
      </trkpt>
      <trkpt lat="48.04618" lon="6.91001">
        <ele>1092.51</ele>
        <time>2014-02-14T12:31:44Z</time>
      </trkpt>
      <trkpt lat="48.04633" lon="6.90976">
        <ele>1093.22</ele>
        <time>2014-02-14T12:32:04Z</time>
      </trkpt>
      <trkpt lat="48.04648" lon="6.90949">
        <ele>1092.94</ele>
        <time>2014-02-14T12:32:26Z</time>
      </trkpt>
      <trkpt lat="48.0466" lon="6.9093">
        <ele>1093</ele>
        <time>2014-02-14T12:32:43Z</time>
      </trkpt>
      <trkpt lat="48.04675" lon="6.9091">
        <ele>1093.05</ele>
        <time>2014-02-14T12:33:01Z</time>
      </trkpt>
      <trkpt lat="48.04694" lon="6.90897">
        <ele>1092.79</ele>
        <time>2014-02-14T12:33:22Z</time>
      </trkpt>
      <trkpt lat="48.04715" lon="6.90884">
        <ele>1094.22</ele>
        <time>2014-02-14T12:33:42Z</time>
      </trkpt>
      <trkpt lat="48.04737" lon="6.90856">
        <ele>1095.76</ele>
        <time>2014-02-14T12:34:04Z</time>
      </trkpt>
      <trkpt lat="48.04757" lon="6.90832">
        <ele>1095.91</ele>
        <time>2014-02-14T12:34:24Z</time>
      </trkpt>
      <trkpt lat="48.04766" lon="6.90811">
        <ele>1095.24</ele>
        <time>2014-02-14T12:34:37Z</time>
      </trkpt>
      <trkpt lat="48.04778" lon="6.90779">
        <ele>1094.44</ele>
        <time>2014-02-14T12:34:58Z</time>
      </trkpt>
      <trkpt lat="48.04786" lon="6.90755">
        <ele>1093.74</ele>
        <time>2014-02-14T12:35:12Z</time>
      </trkpt>
      <trkpt lat="48.04795" lon="6.90736">
        <ele>1092.85</ele>
        <time>2014-02-14T12:35:26Z</time>
      </trkpt>
      <trkpt lat="48.04804" lon="6.9071">
        <ele>1092.67</ele>
        <time>2014-02-14T12:35:42Z</time>
      </trkpt>
      <trkpt lat="48.04816" lon="6.90678">
        <ele>1092.88</ele>
        <time>2014-02-14T12:36:05Z</time>
      </trkpt>
      <trkpt lat="48.04817" lon="6.9067">
        <ele>1093.03</ele>
        <time>2014-02-14T12:36:34Z</time>
      </trkpt>
      <trkpt lat="48.04813" lon="6.90675">
        <ele>1093.42</ele>
        <time>2014-02-14T12:37:01Z</time>
      </trkpt>
      <trkpt lat="48.0482" lon="6.90653">
        <ele>1093.44</ele>
        <time>2014-02-14T12:37:20Z</time>
      </trkpt>
      <trkpt lat="48.0483" lon="6.90618">
        <ele>1092.08</ele>
        <time>2014-02-14T12:37:41Z</time>
      </trkpt>
      <trkpt lat="48.04835" lon="6.90581">
        <ele>1091.24</ele>
        <time>2014-02-14T12:38:00Z</time>
      </trkpt>
      <trkpt lat="48.04837" lon="6.90552">
        <ele>1089.62</ele>
        <time>2014-02-14T12:38:17Z</time>
      </trkpt>
      <trkpt lat="48.04835" lon="6.90538">
        <ele>1089.12</ele>
        <time>2014-02-14T12:38:24Z</time>
      </trkpt>
      <trkpt lat="48.04833" lon="6.90498">
        <ele>1087.8</ele>
        <time>2014-02-14T12:38:45Z</time>
      </trkpt>
      <trkpt lat="48.04837" lon="6.90465">
        <ele>1087.13</ele>
        <time>2014-02-14T12:39:05Z</time>
      </trkpt>
      <trkpt lat="48.04842" lon="6.90431">
        <ele>1085.43</ele>
        <time>2014-02-14T12:39:24Z</time>
      </trkpt>
      <trkpt lat="48.04841" lon="6.90411">
        <ele>1083.84</ele>
        <time>2014-02-14T12:39:36Z</time>
      </trkpt>
      <trkpt lat="48.04842" lon="6.90402">
        <ele>1083.44</ele>
        <time>2014-02-14T12:39:40Z</time>
      </trkpt>
      <trkpt lat="48.04843" lon="6.90371">
        <ele>1081.97</ele>
        <time>2014-02-14T12:39:57Z</time>
      </trkpt>
      <trkpt lat="48.04844" lon="6.90346">
        <ele>1080.1</ele>
        <time>2014-02-14T12:40:13Z</time>
      </trkpt>
      <trkpt lat="48.04849" lon="6.90312">
        <ele>1078.52</ele>
        <time>2014-02-14T12:40:31Z</time>
      </trkpt>
      <trkpt lat="48.04849" lon="6.90308">
        <ele>1078.23</ele>
        <time>2014-02-14T12:40:34Z</time>
      </trkpt>
      <trkpt lat="48.04854" lon="6.90286">
        <ele>1076.65</ele>
        <time>2014-02-14T12:40:47Z</time>
      </trkpt>
      <trkpt lat="48.04855" lon="6.90279">
        <ele>1076.19</ele>
        <time>2014-02-14T12:40:51Z</time>
      </trkpt>
      <trkpt lat="48.04854" lon="6.90275">
        <ele>1075.92</ele>
        <time>2014-02-14T12:40:53Z</time>
      </trkpt>
      <trkpt lat="48.04855" lon="6.9027">
        <ele>1075.61</ele>
        <time>2014-02-14T12:40:56Z</time>
      </trkpt>
      <trkpt lat="48.04858" lon="6.9024">
        <ele>1072.92</ele>
        <time>2014-02-14T12:41:16Z</time>
      </trkpt>
      <trkpt lat="48.04861" lon="6.90212">
        <ele>1071.12</ele>
        <time>2014-02-14T12:41:31Z</time>
      </trkpt>
      <trkpt lat="48.04861" lon="6.90181">
        <ele>1069.67</ele>
        <time>2014-02-14T12:41:46Z</time>
      </trkpt>
      <trkpt lat="48.04862" lon="6.90162">
        <ele>1068.63</ele>
        <time>2014-02-14T12:41:56Z</time>
      </trkpt>
      <trkpt lat="48.04869" lon="6.90142">
        <ele>1067.9</ele>
        <time>2014-02-14T12:42:11Z</time>
      </trkpt>
      <trkpt lat="48.04873" lon="6.90131">
        <ele>1067.29</ele>
        <time>2014-02-14T12:42:18Z</time>
      </trkpt>
      <trkpt lat="48.04873" lon="6.90128">
        <ele>1067.27</ele>
        <time>2014-02-14T12:42:20Z</time>
      </trkpt>
      <trkpt lat="48.04882" lon="6.90101">
        <ele>1066.45</ele>
        <time>2014-02-14T12:42:37Z</time>
      </trkpt>
      <trkpt lat="48.04883" lon="6.90099">
        <ele>1066.52</ele>
        <time>2014-02-14T12:42:38Z</time>
      </trkpt>
      <trkpt lat="48.04889" lon="6.90085">
        <ele>1066.3</ele>
        <time>2014-02-14T12:42:54Z</time>
      </trkpt>
      <trkpt lat="48.04898" lon="6.9008">
        <ele>1066.26</ele>
        <time>2014-02-14T12:43:23Z</time>
      </trkpt>
      <trkpt lat="48.04898" lon="6.90087">
        <ele>1067.55</ele>
        <time>2014-02-14T12:43:58Z</time>
      </trkpt>
      <trkpt lat="48.04901" lon="6.90082">
        <ele>1067.42</ele>
        <time>2014-02-14T12:44:23Z</time>
      </trkpt>
      <trkpt lat="48.04896" lon="6.90078">
        <ele>1067.49</ele>
        <time>2014-02-14T12:44:29Z</time>
      </trkpt>
      <trkpt lat="48.04896" lon="6.90061">
        <ele>1067.28</ele>
        <time>2014-02-14T12:44:39Z</time>
      </trkpt>
      <trkpt lat="48.04902" lon="6.90041">
        <ele>1067.16</ele>
        <time>2014-02-14T12:44:53Z</time>
      </trkpt>
      <trkpt lat="48.04905" lon="6.90016">
        <ele>1066.65</ele>
        <time>2014-02-14T12:45:10Z</time>
      </trkpt>
      <trkpt lat="48.04913" lon="6.89986">
        <ele>1066.04</ele>
        <time>2014-02-14T12:45:32Z</time>
      </trkpt>
      <trkpt lat="48.04916" lon="6.89976">
        <ele>1066.4</ele>
        <time>2014-02-14T12:45:40Z</time>
      </trkpt>
      <trkpt lat="48.04921" lon="6.89953">
        <ele>1066.6</ele>
        <time>2014-02-14T12:45:55Z</time>
      </trkpt>
      <trkpt lat="48.04926" lon="6.89931">
        <ele>1066.41</ele>
        <time>2014-02-14T12:46:11Z</time>
      </trkpt>
      <trkpt lat="48.04932" lon="6.89896">
        <ele>1065.63</ele>
        <time>2014-02-14T12:46:31Z</time>
      </trkpt>
      <trkpt lat="48.04938" lon="6.89863">
        <ele>1065.24</ele>
        <time>2014-02-14T12:46:46Z</time>
      </trkpt>
      <trkpt lat="48.04942" lon="6.89842">
        <ele>1064.56</ele>
        <time>2014-02-14T12:46:59Z</time>
      </trkpt>
      <trkpt lat="48.04947" lon="6.89809">
        <ele>1065.89</ele>
        <time>2014-02-14T12:47:21Z</time>
      </trkpt>
      <trkpt lat="48.04956" lon="6.89785">
        <ele>1066.74</ele>
        <time>2014-02-14T12:47:40Z</time>
      </trkpt>
      <trkpt lat="48.04965" lon="6.89765">
        <ele>1067.73</ele>
        <time>2014-02-14T12:47:56Z</time>
      </trkpt>
      <trkpt lat="48.0497" lon="6.89736">
        <ele>1068.36</ele>
        <time>2014-02-14T12:48:16Z</time>
      </trkpt>
      <trkpt lat="48.04979" lon="6.89713">
        <ele>1069.91</ele>
        <time>2014-02-14T12:48:34Z</time>
      </trkpt>
      <trkpt lat="48.04984" lon="6.89683">
        <ele>1070.49</ele>
        <time>2014-02-14T12:48:52Z</time>
      </trkpt>
      <trkpt lat="48.0499" lon="6.89669">
        <ele>1070.52</ele>
        <time>2014-02-14T12:49:03Z</time>
      </trkpt>
      <trkpt lat="48.05004" lon="6.89651">
        <ele>1069.25</ele>
        <time>2014-02-14T12:49:20Z</time>
      </trkpt>
      <trkpt lat="48.05018" lon="6.89639">
        <ele>1067.65</ele>
        <time>2014-02-14T12:49:41Z</time>
      </trkpt>
      <trkpt lat="48.05037" lon="6.89634">
        <ele>1065.49</ele>
        <time>2014-02-14T12:50:01Z</time>
      </trkpt>
      <trkpt lat="48.0506" lon="6.89632">
        <ele>1062.74</ele>
        <time>2014-02-14T12:50:23Z</time>
      </trkpt>
      <trkpt lat="48.05085" lon="6.8962">
        <ele>1059.64</ele>
        <time>2014-02-14T12:50:44Z</time>
      </trkpt>
      <trkpt lat="48.05117" lon="6.89617">
        <ele>1057.03</ele>
        <time>2014-02-14T12:51:06Z</time>
      </trkpt>
      <trkpt lat="48.05146" lon="6.89603">
        <ele>1055.93</ele>
        <time>2014-02-14T12:51:27Z</time>
      </trkpt>
      <trkpt lat="48.05161" lon="6.89585">
        <ele>1055.2</ele>
        <time>2014-02-14T12:51:41Z</time>
      </trkpt>
      <trkpt lat="48.05185" lon="6.89564">
        <ele>1053.49</ele>
        <time>2014-02-14T12:52:01Z</time>
      </trkpt>
      <trkpt lat="48.05204" lon="6.89531">
        <ele>1051.24</ele>
        <time>2014-02-14T12:52:25Z</time>
      </trkpt>
      <trkpt lat="48.05213" lon="6.89506">
        <ele>1050.35</ele>
        <time>2014-02-14T12:52:41Z</time>
      </trkpt>
      <trkpt lat="48.05225" lon="6.89481">
        <ele>1049.95</ele>
        <time>2014-02-14T12:52:59Z</time>
      </trkpt>
      <trkpt lat="48.05235" lon="6.89466">
        <ele>1049.39</ele>
        <time>2014-02-14T12:53:12Z</time>
      </trkpt>
      <trkpt lat="48.0524" lon="6.89436">
        <ele>1049.04</ele>
        <time>2014-02-14T12:53:34Z</time>
      </trkpt>
      <trkpt lat="48.05242" lon="6.8942">
        <ele>1048.78</ele>
        <time>2014-02-14T12:54:00Z</time>
      </trkpt>
      <trkpt lat="48.05246" lon="6.89401">
        <ele>1048.48</ele>
        <time>2014-02-14T12:54:16Z</time>
      </trkpt>
      <trkpt lat="48.05254" lon="6.89375">
        <ele>1048.01</ele>
        <time>2014-02-14T12:54:32Z</time>
      </trkpt>
      <trkpt lat="48.0526" lon="6.89348">
        <ele>1047.3</ele>
        <time>2014-02-14T12:54:47Z</time>
      </trkpt>
      <trkpt lat="48.05268" lon="6.89325">
        <ele>1046.75</ele>
        <time>2014-02-14T12:55:04Z</time>
      </trkpt>
      <trkpt lat="48.05271" lon="6.89312">
        <ele>1046.6</ele>
        <time>2014-02-14T12:55:12Z</time>
      </trkpt>
      <trkpt lat="48.05277" lon="6.89283">
        <ele>1045.28</ele>
        <time>2014-02-14T12:55:29Z</time>
      </trkpt>
      <trkpt lat="48.05285" lon="6.89251">
        <ele>1044.23</ele>
        <time>2014-02-14T12:55:51Z</time>
      </trkpt>
      <trkpt lat="48.05289" lon="6.89224">
        <ele>1043.01</ele>
        <time>2014-02-14T12:56:10Z</time>
      </trkpt>
      <trkpt lat="48.05291" lon="6.89224">
        <ele>1042.35</ele>
        <time>2014-02-14T12:56:37Z</time>
      </trkpt>
      <trkpt lat="48.053" lon="6.89214">
        <ele>1042.5</ele>
        <time>2014-02-14T12:57:00Z</time>
      </trkpt>
      <trkpt lat="48.05303" lon="6.89209">
        <ele>1042.43</ele>
        <time>2014-02-14T12:57:04Z</time>
      </trkpt>
      <trkpt lat="48.0531" lon="6.89186">
        <ele>1040.44</ele>
        <time>2014-02-14T12:57:19Z</time>
      </trkpt>
      <trkpt lat="48.05313" lon="6.89154">
        <ele>1037.5</ele>
        <time>2014-02-14T12:57:37Z</time>
      </trkpt>
      <trkpt lat="48.05317" lon="6.89123">
        <ele>1035.98</ele>
        <time>2014-02-14T12:57:54Z</time>
      </trkpt>
      <trkpt lat="48.05322" lon="6.89095">
        <ele>1034.58</ele>
        <time>2014-02-14T12:58:13Z</time>
      </trkpt>
      <trkpt lat="48.05324" lon="6.89069">
        <ele>1033.27</ele>
        <time>2014-02-14T12:58:31Z</time>
      </trkpt>
      <trkpt lat="48.05323" lon="6.89047">
        <ele>1032.36</ele>
        <time>2014-02-14T12:58:42Z</time>
      </trkpt>
      <trkpt lat="48.0532" lon="6.89017">
        <ele>1030.43</ele>
        <time>2014-02-14T12:58:58Z</time>
      </trkpt>
      <trkpt lat="48.05327" lon="6.88998">
        <ele>1028.98</ele>
        <time>2014-02-14T12:59:13Z</time>
      </trkpt>
      <trkpt lat="48.05333" lon="6.88977">
        <ele>1028.74</ele>
        <time>2014-02-14T12:59:29Z</time>
      </trkpt>
      <trkpt lat="48.05356" lon="6.88974">
        <ele>1026.99</ele>
        <time>2014-02-14T12:59:51Z</time>
      </trkpt>
      <trkpt lat="48.05368" lon="6.88983">
        <ele>1025.33</ele>
        <time>2014-02-14T13:00:06Z</time>
      </trkpt>
      <trkpt lat="48.05377" lon="6.88987">
        <ele>1024.02</ele>
        <time>2014-02-14T13:00:15Z</time>
      </trkpt>
      <trkpt lat="48.05389" lon="6.89009">
        <ele>1021.57</ele>
        <time>2014-02-14T13:00:31Z</time>
      </trkpt>
      <trkpt lat="48.05398" lon="6.89022">
        <ele>1019.88</ele>
        <time>2014-02-14T13:00:43Z</time>
      </trkpt>
      <trkpt lat="48.05413" lon="6.89043">
        <ele>1017.2</ele>
        <time>2014-02-14T13:01:01Z</time>
      </trkpt>
      <trkpt lat="48.05419" lon="6.89065">
        <ele>1014.19</ele>
        <time>2014-02-14T13:01:16Z</time>
      </trkpt>
      <trkpt lat="48.05435" lon="6.89087">
        <ele>1011.18</ele>
        <time>2014-02-14T13:01:36Z</time>
      </trkpt>
      <trkpt lat="48.05445" lon="6.89109">
        <ele>1007.99</ele>
        <time>2014-02-14T13:01:52Z</time>
      </trkpt>
      <trkpt lat="48.05455" lon="6.89133">
        <ele>1004.85</ele>
        <time>2014-02-14T13:02:08Z</time>
      </trkpt>
      <trkpt lat="48.05464" lon="6.89153">
        <ele>1001.83</ele>
        <time>2014-02-14T13:02:22Z</time>
      </trkpt>
      <trkpt lat="48.05472" lon="6.89165">
        <ele>998.72</ele>
        <time>2014-02-14T13:02:36Z</time>
      </trkpt>
      <trkpt lat="48.05484" lon="6.89174">
        <ele>996.53</ele>
        <time>2014-02-14T13:02:51Z</time>
      </trkpt>
      <trkpt lat="48.05482" lon="6.89189">
        <ele>996.16</ele>
        <time>2014-02-14T13:03:18Z</time>
      </trkpt>
      <trkpt lat="48.05483" lon="6.892">
        <ele>995.58</ele>
        <time>2014-02-14T13:03:47Z</time>
      </trkpt>
      <trkpt lat="48.05494" lon="6.89199">
        <ele>995.63</ele>
        <time>2014-02-14T13:03:58Z</time>
      </trkpt>
      <trkpt lat="48.05525" lon="6.89201">
        <ele>993.38</ele>
        <time>2014-02-14T13:04:17Z</time>
      </trkpt>
      <trkpt lat="48.05538" lon="6.89209">
        <ele>991.32</ele>
        <time>2014-02-14T13:04:30Z</time>
      </trkpt>
      <trkpt lat="48.05551" lon="6.89223">
        <ele>988.22</ele>
        <time>2014-02-14T13:04:47Z</time>
      </trkpt>
      <trkpt lat="48.05563" lon="6.8924">
        <ele>985.03</ele>
        <time>2014-02-14T13:05:04Z</time>
      </trkpt>
      <trkpt lat="48.05574" lon="6.89252">
        <ele>981.96</ele>
        <time>2014-02-14T13:05:18Z</time>
      </trkpt>
      <trkpt lat="48.05588" lon="6.89261">
        <ele>978.82</ele>
        <time>2014-02-14T13:05:32Z</time>
      </trkpt>
      <trkpt lat="48.05594" lon="6.89261">
        <ele>977.48</ele>
        <time>2014-02-14T13:05:38Z</time>
      </trkpt>
      <trkpt lat="48.05608" lon="6.89252">
        <ele>975.63</ele>
        <time>2014-02-14T13:05:54Z</time>
      </trkpt>
      <trkpt lat="48.05611" lon="6.89228">
        <ele>973.65</ele>
        <time>2014-02-14T13:06:14Z</time>
      </trkpt>
      <trkpt lat="48.05612" lon="6.89212">
        <ele>970.46</ele>
        <time>2014-02-14T13:06:31Z</time>
      </trkpt>
      <trkpt lat="48.0561" lon="6.8919">
        <ele>967.32</ele>
        <time>2014-02-14T13:06:44Z</time>
      </trkpt>
      <trkpt lat="48.05614" lon="6.89171">
        <ele>964.26</ele>
        <time>2014-02-14T13:06:58Z</time>
      </trkpt>
      <trkpt lat="48.05614" lon="6.89166">
        <ele>963.64</ele>
        <time>2014-02-14T13:07:01Z</time>
      </trkpt>
      <trkpt lat="48.05613" lon="6.8914">
        <ele>961.45</ele>
        <time>2014-02-14T13:07:18Z</time>
      </trkpt>
      <trkpt lat="48.05611" lon="6.89112">
        <ele>958.78</ele>
        <time>2014-02-14T13:07:35Z</time>
      </trkpt>
      <trkpt lat="48.05612" lon="6.89102">
        <ele>957.73</ele>
        <time>2014-02-14T13:07:42Z</time>
      </trkpt>
      <trkpt lat="48.0562" lon="6.89081">
        <ele>954.58</ele>
        <time>2014-02-14T13:07:59Z</time>
      </trkpt>
      <trkpt lat="48.05629" lon="6.89079">
        <ele>952.25</ele>
        <time>2014-02-14T13:08:10Z</time>
      </trkpt>
      <trkpt lat="48.05639" lon="6.89094">
        <ele>949.05</ele>
        <time>2014-02-14T13:08:25Z</time>
      </trkpt>
      <trkpt lat="48.05643" lon="6.89097">
        <ele>947.71</ele>
        <time>2014-02-14T13:08:29Z</time>
      </trkpt>
      <trkpt lat="48.05654" lon="6.89111">
        <ele>944.46</ele>
        <time>2014-02-14T13:08:42Z</time>
      </trkpt>
      <trkpt lat="48.05661" lon="6.89122">
        <ele>942.53</ele>
        <time>2014-02-14T13:08:50Z</time>
      </trkpt>
      <trkpt lat="48.05672" lon="6.89147">
        <ele>939.55</ele>
        <time>2014-02-14T13:09:07Z</time>
      </trkpt>
      <trkpt lat="48.05684" lon="6.89163">
        <ele>937.38</ele>
        <time>2014-02-14T13:09:22Z</time>
      </trkpt>
      <trkpt lat="48.05692" lon="6.89175">
        <ele>935.44</ele>
        <time>2014-02-14T13:09:33Z</time>
      </trkpt>
      <trkpt lat="48.057" lon="6.89205">
        <ele>932.29</ele>
        <time>2014-02-14T13:09:53Z</time>
      </trkpt>
      <trkpt lat="48.05702" lon="6.89219">
        <ele>930.68</ele>
        <time>2014-02-14T13:10:03Z</time>
      </trkpt>
      <trkpt lat="48.05705" lon="6.89242">
        <ele>928.76</ele>
        <time>2014-02-14T13:10:18Z</time>
      </trkpt>
      <trkpt lat="48.05706" lon="6.89255">
        <ele>927.74</ele>
        <time>2014-02-14T13:10:27Z</time>
      </trkpt>
      <trkpt lat="48.05709" lon="6.89272">
        <ele>926.59</ele>
        <time>2014-02-14T13:10:38Z</time>
      </trkpt>
      <trkpt lat="48.05704" lon="6.89307">
        <ele>924.34</ele>
        <time>2014-02-14T13:10:54Z</time>
      </trkpt>
      <trkpt lat="48.05705" lon="6.89335">
        <ele>922.4</ele>
        <time>2014-02-14T13:11:10Z</time>
      </trkpt>
      <trkpt lat="48.05706" lon="6.89365">
        <ele>921.08</ele>
        <time>2014-02-14T13:11:27Z</time>
      </trkpt>
      <trkpt lat="48.05706" lon="6.89366">
        <ele>921.01</ele>
        <time>2014-02-14T13:11:28Z</time>
      </trkpt>
      <trkpt lat="48.05708" lon="6.89392">
        <ele>919.37</ele>
        <time>2014-02-14T13:11:43Z</time>
      </trkpt>
      <trkpt lat="48.0571" lon="6.89401">
        <ele>918.43</ele>
        <time>2014-02-14T13:11:48Z</time>
      </trkpt>
      <trkpt lat="48.05715" lon="6.8942">
        <ele>916.56</ele>
        <time>2014-02-14T13:12:04Z</time>
      </trkpt>
      <trkpt lat="48.05723" lon="6.89434">
        <ele>913.46</ele>
        <time>2014-02-14T13:12:18Z</time>
      </trkpt>
      <trkpt lat="48.05731" lon="6.89438">
        <ele>910.67</ele>
        <time>2014-02-14T13:12:33Z</time>
      </trkpt>
      <trkpt lat="48.05741" lon="6.89438">
        <ele>907.38</ele>
        <time>2014-02-14T13:12:45Z</time>
      </trkpt>
      <trkpt lat="48.0575" lon="6.89437">
        <ele>904.21</ele>
        <time>2014-02-14T13:12:58Z</time>
      </trkpt>
      <trkpt lat="48.05763" lon="6.89436">
        <ele>901.08</ele>
        <time>2014-02-14T13:13:12Z</time>
      </trkpt>
      <trkpt lat="48.05774" lon="6.89434">
        <ele>897.9</ele>
        <time>2014-02-14T13:13:24Z</time>
      </trkpt>
      <trkpt lat="48.0578" lon="6.8943">
        <ele>895.26</ele>
        <time>2014-02-14T13:13:35Z</time>
      </trkpt>
      <trkpt lat="48.05785" lon="6.89429">
        <ele>894.37</ele>
        <time>2014-02-14T13:13:39Z</time>
      </trkpt>
      <trkpt lat="48.05801" lon="6.89419">
        <ele>891.26</ele>
        <time>2014-02-14T13:13:55Z</time>
      </trkpt>
      <trkpt lat="48.0581" lon="6.89413">
        <ele>890.05</ele>
        <time>2014-02-14T13:14:03Z</time>
      </trkpt>
      <trkpt lat="48.05832" lon="6.89398">
        <ele>887.55</ele>
        <time>2014-02-14T13:14:24Z</time>
      </trkpt>
      <trkpt lat="48.05843" lon="6.89387">
        <ele>886.18</ele>
        <time>2014-02-14T13:14:41Z</time>
      </trkpt>
      <trkpt lat="48.05854" lon="6.89376">
        <ele>884.56</ele>
        <time>2014-02-14T13:14:57Z</time>
      </trkpt>
      <trkpt lat="48.05871" lon="6.89362">
        <ele>882.97</ele>
        <time>2014-02-14T13:15:15Z</time>
      </trkpt>
      <trkpt lat="48.05885" lon="6.89343">
        <ele>882.04</ele>
        <time>2014-02-14T13:15:32Z</time>
      </trkpt>
      <trkpt lat="48.05896" lon="6.89333">
        <ele>881.61</ele>
        <time>2014-02-14T13:15:44Z</time>
      </trkpt>
      <trkpt lat="48.05902" lon="6.89334">
        <ele>881.29</ele>
        <time>2014-02-14T13:15:49Z</time>
      </trkpt>
      <trkpt lat="48.05911" lon="6.89326">
        <ele>881</ele>
        <time>2014-02-14T13:15:58Z</time>
      </trkpt>
      <trkpt lat="48.0593" lon="6.89314">
        <ele>880.35</ele>
        <time>2014-02-14T13:16:16Z</time>
      </trkpt>
      <trkpt lat="48.05939" lon="6.89315">
        <ele>879.78</ele>
        <time>2014-02-14T13:16:35Z</time>
      </trkpt>
      <trkpt lat="48.05939" lon="6.89312">
        <ele>879.37</ele>
        <time>2014-02-14T13:16:57Z</time>
      </trkpt>
      <trkpt lat="48.05941" lon="6.89312">
        <ele>879.88</ele>
        <time>2014-02-14T13:17:30Z</time>
      </trkpt>
      <trkpt lat="48.0594" lon="6.89312">
        <ele>879.89</ele>
        <time>2014-02-14T13:17:39Z</time>
      </trkpt>
    </trkseg>
  </trk>
</gpx>